Another Hard Day at the Office Weather Stats

 
 
 

High monthly outside Temperature, 22.8 , C
Low monthly outside Temperature, -1.0 , C
High yearly outside Temperature, 30.9 , C
Low yearly outside Temperature, -2.2 , C

Low monthly barometer, 1001.1 , mb
High monthly barometer, 1028.0 , mb
Low yearly barometer, 975.0 , mb
High yearly barometer 1041.1 , mb

High wind speed, 25.0 , mph
Time of High wind speed, 21:37 , mph
High monthly wind speed, 47.0 , mph
High yearly wind speed, 55.0 , mph

 

 




3126
                    Temp     Hi    Low   Out    Dew  Wind  Wind   Wind    Hi    Hi   Wind   Heat    THW                Rain    Heat    Cool    In     In    In     In     In   In Air  Wind  Wind    ISS   Arc.
  Date    Time     Out   Temp   Temp   Hum    Pt. Speed   Dir    Run Speed   Dir  Chill  Index  Index   Bar    Rain  Rate    D-D     D-D    Temp   Hum    Dew   Heat    EMC Density  Samp   Tx   Recept  Int.
---------------------------------------------------------------------------------------------------------------------------------------------------------------------------------------------------------------
13/10/19   0:05   12.1   12.1   12.1    88   10.1   0.0    NE   0.00   5.0    NE   12.1   12.1   12.1  1005.3  0.00  0.00   0.022   0.000   21.4    58   12.8   20.9  10.73  .0732    116    1    100.0    5 
13/10/19   0:10   12.1   12.1   12.1    88   10.1   0.0   ---   0.00   0.0   ---   12.1   12.1   12.1  1005.2  0.00  0.00   0.022   0.000   21.3    58   12.7   20.8  10.73  .0732    117    1    100.0    5 
13/10/19   0:15   12.1   12.1   12.1    88   10.1   0.0    NE   0.00   4.0    NE   12.1   12.1   12.1  1005.2  0.00  0.00   0.022   0.000   21.3    58   12.7   20.8  10.73  .0732    117    1    100.0    5 
13/10/19   0:20   12.1   12.1   12.1    88   10.2   1.0    NE   0.08   4.0    NE   12.1   12.1   12.1  1005.1  0.00  0.00   0.022   0.000   21.3    58   12.7   20.8  10.73  .0732    116    1    100.0    5 
13/10/19   0:25   12.1   12.1   12.1    88   10.2   0.0    NE   0.00   2.0    NE   12.1   12.1   12.1  1005.1  0.00  0.00   0.022   0.000   21.3    58   12.7   20.8  10.73  .0732    116    1    100.0    5 
13/10/19   0:30   12.1   12.1   12.1    88   10.2   0.0   ---   0.00   0.0   ---   12.1   12.1   12.1  1005.0  0.00  0.00   0.022   0.000   21.4    58   12.8   20.9  10.73  .0732    115    1    100.0    5 
13/10/19   0:35   12.1   12.1   12.1    88   10.2   0.0   ---   0.00   0.0   ---   12.1   12.1   12.1  1005.2  0.00  0.00   0.022   0.000   21.3    58   12.7   20.8  10.73  .0732    117    1    100.0    5 
13/10/19   0:40   12.1   12.1   12.1    88   10.2   0.0   ---   0.00   0.0   ---   12.1   12.1   12.1  1005.1  0.00  0.00   0.022   0.000   21.3    58   12.7   20.8  10.73  .0732    117    1    100.0    5 
13/10/19   0:45   12.1   12.1   12.1    88   10.2   0.0    NE   0.00   3.0    NE   12.1   12.1   12.1  1004.9  0.00  0.00   0.022   0.000   21.3    58   12.7   20.8  10.73  .0732    116    1    100.0    5 
13/10/19   0:50   12.1   12.1   12.1    88   10.2   0.0    NE   0.00   2.0    NE   12.1   12.1   12.1  1004.8  0.00  0.00   0.022   0.000   21.3    58   12.7   20.8  10.73  .0732    117    1    100.0    5 
13/10/19   0:55   12.2   12.2   12.1    88   10.2   2.0    NE   0.17   5.0    NE   12.2   12.2   12.2  1004.7  0.00  0.00   0.021   0.000   21.3    58   12.7   20.8  10.73  .0732    115    1    100.0    5 
13/10/19   1:00   12.2   12.2   12.2    88   10.3   2.0    NE   0.17   7.0    NE   12.2   12.2   12.2  1004.7  0.00  0.00   0.021   0.000   21.3    58   12.7   20.8  10.74  .0732    117    1    100.0    5 
13/10/19   1:05   12.2   12.2   12.2    88   10.3   1.0    NE   0.08   6.0    NE   12.2   12.2   12.2  1004.7  0.00  0.00   0.021   0.000   21.3    58   12.7   20.8  10.74  .0732    115    1    100.0    5 
13/10/19   1:10   12.2   12.2   12.2    88   10.3   0.0    NE   0.00   3.0    NE   12.2   12.2   12.2  1004.8  0.00  0.00   0.021   0.000   21.3    58   12.7   20.8  10.74  .0732    116    1    100.0    5 
13/10/19   1:15   12.3   12.3   12.2    88   10.3   0.0    NE   0.00   2.0    NE   12.3   12.3   12.3  1004.7  0.00  0.00   0.021   0.000   21.3    58   12.7   20.8  10.74  .0732    114    1    100.0    5 
13/10/19   1:20   12.3   12.3   12.3    88   10.3   0.0    NE   0.00   2.0    NE   12.3   12.3   12.3  1004.7  0.00  0.00   0.021   0.000   21.3    58   12.7   20.8  10.74  .0732    117    1    100.0    5 
13/10/19   1:25   12.3   12.3   12.3    88   10.4   0.0    NE   0.00   1.0    NE   12.3   12.3   12.3  1004.6  0.01  0.00   0.021   0.000   21.3    58   12.7   20.8  10.74  .0732    116    1    100.0    5 
13/10/19   1:30   12.3   12.3   12.3    88   10.4   0.0    NE   0.00   2.0    NE   12.3   12.3   12.3  1004.4  0.01  0.08   0.021   0.000   21.3    58   12.7   20.8  10.74  .0731    115    1    100.0    5 
13/10/19   1:35   12.4   12.4   12.3    88   10.5   1.0    NE   0.08   5.0    NE   12.4   12.4   12.4  1004.3  0.00  0.08   0.021   0.000   21.3    58   12.7   20.8  10.74  .0731    117    1    100.0    5 
13/10/19   1:40   12.4   12.4   12.4    88   10.5   0.0    NE   0.00   4.0    NE   12.4   12.4   12.4  1004.3  0.00  0.05   0.020   0.000   21.3    58   12.7   20.8  10.74  .0731    117    1    100.0    5 
13/10/19   1:45   12.4   12.4   12.4    88   10.5   0.0    NE   0.00   4.0    NE   12.4   12.4   12.4  1004.2  0.00  0.04   0.020   0.000   21.3    58   12.7   20.8  10.74  .0731    117    1    100.0    5 
13/10/19   1:50   12.5   12.5   12.4    88   10.6   0.0    NE   0.00   4.0    NE   12.5   12.5   12.5  1004.2  0.00  0.00   0.020   0.000   21.3    58   12.7   20.8  10.74  .0731    117    1    100.0    5 
13/10/19   1:55   12.5   12.5   12.5    88   10.6   1.0    NE   0.08   6.0    NE   12.5   12.5   12.5  1004.0  0.00  0.00   0.020   0.000   21.3    58   12.7   20.8  10.74  .0731    116    1    100.0    5 
13/10/19   2:00   12.5   12.5   12.5    88   10.6   1.0    NE   0.08   7.0    NE   12.5   12.5   12.5  1004.1  0.01  0.00   0.020   0.000   21.2    58   12.6   20.7  10.74  .0731    117    1    100.0    5 
13/10/19   2:05   12.5   12.5   12.5    88   10.6   2.0    NE   0.17   7.0    NE   12.5   12.5   12.5  1004.0  0.00  0.00   0.020   0.000   21.2    58   12.6   20.7  10.74  .0731    115    1    100.0    5 
13/10/19   2:10   12.5   12.6   12.5    88   10.6   1.0    NE   0.08   7.0    NE   12.5   12.5   12.5  1004.1  0.00  0.00   0.020   0.000   21.2    58   12.6   20.7  10.74  .0731    118    1    100.0    5 
13/10/19   2:15   12.6   12.6   12.5    88   10.6   0.0    NE   0.00   4.0    NE   12.6   12.6   12.6  1004.0  0.00  0.00   0.020   0.000   21.2    58   12.6   20.7  10.74  .0731    117    1    100.0    5 
13/10/19   2:20   12.6   12.6   12.5    88   10.6   1.0    NE   0.08   5.0    NE   12.6   12.6   12.6  1004.0  0.00  0.00   0.020   0.000   21.2    58   12.6   20.7  10.74  .0731    115    1    100.0    5 
13/10/19   2:25   12.6   12.6   12.6    88   10.6   0.0    NE   0.00   1.0    NE   12.6   12.6   12.6  1004.0  0.00  0.00   0.020   0.000   21.2    58   12.6   20.6  10.75  .0732    117    1    100.0    5 
13/10/19   2:30   12.6   12.6   12.6    88   10.6   0.0   ---   0.00   0.0   ---   12.6   12.6   12.6  1003.9  0.00  0.00   0.020   0.000   21.2    58   12.6   20.6  10.75  .0731    117    1    100.0    5 
13/10/19   2:35   12.6   12.6   12.6    88   10.7   0.0    NE   0.00   3.0    NE   12.6   12.6   12.6  1003.8  0.00  0.00   0.020   0.000   21.2    58   12.6   20.6  10.75  .0731    117    1    100.0    5 
13/10/19   2:40   12.7   12.7   12.6    88   10.7   0.0   ---   0.00   0.0   ---   12.7   12.7   12.7  1003.8  0.00  0.00   0.020   0.000   21.2    58   12.6   20.6  10.75  .0731    117    1    100.0    5 
13/10/19   2:45   12.7   12.7   12.7    88   10.7   0.0   ---   0.00   0.0   ---   12.7   12.7   12.7  1003.8  0.00  0.00   0.020   0.000   21.2    58   12.6   20.6  10.75  .0731    115    1    100.0    5 
13/10/19   2:50   12.7   12.7   12.7    88   10.8   0.0   ---   0.00   0.0   ---   12.7   12.7   12.7  1003.7  0.00  0.00   0.019   0.000   21.2    58   12.6   20.6  10.75  .0731    116    1    100.0    5 
13/10/19   2:55   12.7   12.7   12.7    88   10.8   0.0   ---   0.00   0.0   ---   12.7   12.7   12.7  1003.7  0.01  0.00   0.019   0.000   21.2    58   12.6   20.6  10.75  .0731    117    1    100.0    5 
13/10/19   3:00   12.8   12.8   12.7    88   10.8   0.0   ---   0.00   0.0   ---   12.8   12.8   12.8  1003.8  0.00  0.00   0.019   0.000   21.2    58   12.6   20.6  10.75  .0731    117    1    100.0    5 
13/10/19   3:05   12.8   12.8   12.8    88   10.9   0.0   ---   0.00   0.0   ---   12.8   12.8   12.8  1003.6  0.00  0.00   0.019   0.000   21.2    58   12.6   20.6  10.75  .0731    117    1    100.0    5 
13/10/19   3:10   12.8   12.8   12.8    88   10.9   0.0   ---   0.00   0.0   ---   12.8   12.8   12.8  1003.5  0.00  0.00   0.019   0.000   21.2    58   12.6   20.6  10.75  .0731    115    1    100.0    5 
13/10/19   3:15   12.9   12.9   12.8    88   10.9   0.0   ---   0.00   0.0   ---   12.9   12.9   12.9  1003.4  0.00  0.00   0.019   0.000   21.2    58   12.6   20.6  10.75  .0731    116    1    100.0    5 
13/10/19   3:20   12.9   12.9   12.9    88   10.9   0.0   ---   0.00   0.0   ---   12.9   12.9   12.9  1003.4  0.00  0.00   0.019   0.000   21.2    58   12.6   20.6  10.75  .0731    115    1    100.0    5 
13/10/19   3:25   12.9   12.9   12.9    88   11.0   0.0   ---   0.00   0.0   ---   12.9   12.9   12.9  1003.3  0.00  0.00   0.019   0.000   21.1    58   12.5   20.6  10.75  .0731    117    1    100.0    5 
13/10/19   3:30   13.1   13.1   12.9    88   11.1   0.0   ---   0.00   0.0   ---   13.1   13.1   13.1  1003.2  0.00  0.00   0.018   0.000   21.1    58   12.5   20.6  10.75  .0731    117    1    100.0    5 
13/10/19   3:35   13.2   13.2   13.1    88   11.2   0.0   ---   0.00   0.0   ---   13.2   13.2   13.2  1003.2  0.00  0.00   0.018   0.000   21.1    58   12.5   20.6  10.75  .0731    116    1    100.0    5 
13/10/19   3:40   13.2   13.2   13.1    88   11.3   0.0   ---   0.00   0.0   ---   13.2   13.2   13.2  1003.0  0.00  0.00   0.018   0.000   21.1    58   12.5   20.6  10.75  .0731    117    1    100.0    5 
13/10/19   3:45   14.0   14.0   13.2    88   12.0   1.0   ENE   0.08   5.0     E   14.0   14.0   14.0  1003.0  0.00  0.00   0.015   0.000   21.1    58   12.5   20.6  10.75  .0731    117    1    100.0    5 
13/10/19   3:50   15.0   15.0   14.1    88   13.0   5.0     S   0.42   9.0     S   14.9   15.1   14.9  1003.0  0.00  0.00   0.012   0.000   21.1    58   12.5   20.6  10.75  .0731    116    1    100.0    5 
13/10/19   3:55   15.4   15.4   15.1    88   13.5   7.0     S   0.58  10.0     S   15.0   15.6   15.1  1003.1  0.00  0.00   0.010   0.000   21.2    58   12.6   20.6  10.75  .0731    116    1    100.0    5 
13/10/19   4:00   15.6   15.6   15.4    88   13.6   8.0     S   0.67  13.0     S   14.8   15.7   14.9  1002.9  0.00  0.00   0.009   0.000   21.2    57   12.3   20.6  10.55  .0731    115    1    100.0    5 
13/10/19   4:05   15.8   15.9   15.6    88   13.8  11.0     S   0.92  16.0     S   13.8   16.0   14.0  1002.7  0.00  0.00   0.009   0.000   21.2    58   12.6   20.6  10.75  .0731    117    1    100.0    5 
13/10/19   4:10   15.9   15.9   15.8    88   13.9  12.0     S   1.00  14.0     S   13.6   16.1   13.8  1002.6  0.00  0.00   0.008   0.000   21.2    58   12.6   20.6  10.75  .0731    117    1    100.0    5 
13/10/19   4:15   15.9   15.9   15.9    88   13.9   9.0     S   0.75  13.0   SSW   14.7   16.1   14.8  1002.5  0.00  0.00   0.008   0.000   21.1    58   12.5   20.6  10.75  .0731    117    1    100.0    5 
13/10/19   4:20   15.9   15.9   15.9    88   13.9   8.0     S   0.67  12.0     S   15.1   16.1   15.3  1002.5  0.00  0.00   0.008   0.000   21.1    58   12.5   20.6  10.75  .0731    118    1    100.0    5 
13/10/19   4:25   15.9   15.9   15.9    88   13.9   8.0     S   0.67  11.0     S   15.1   16.1   15.3  1002.4  0.00  0.00   0.008   0.000   21.1    58   12.5   20.6  10.75  .0731    117    1    100.0    5 
13/10/19   4:30   15.9   15.9   15.9    88   14.0   7.0     S   0.58  10.0     S   15.6   16.1   15.7  1002.4  0.00  0.00   0.008   0.000   21.1    58   12.5   20.6  10.75  .0731    117    1    100.0    5 
13/10/19   4:35   16.0   16.0   15.9    88   14.0   8.0     S   0.67  12.0   SSW   15.3   16.2   15.4  1002.3  0.00  0.00   0.008   0.000   21.1    58   12.5   20.6  10.75  .0730    115    1    100.0    5 
13/10/19   4:40   16.0   16.0   15.9    88   14.0   9.0     S   0.75  13.0     S   14.8   16.2   15.0  1002.2  0.00  0.00   0.008   0.000   21.1    58   12.5   20.6  10.75  .0730    117    1    100.0    5 
13/10/19   4:45   16.1   16.1   16.0    88   14.1  10.0     S   0.83  17.0     S   14.4   16.2   14.6  1002.0  0.00  0.00   0.008   0.000   21.1    58   12.5   20.6  10.75  .0730    114    1    100.0    5 
13/10/19   4:50   16.1   16.1   16.0    88   14.1  17.0     S   1.42  22.0   SSE   12.8   16.2   12.9  1001.9  0.00  0.00   0.008   0.000   21.1    58   12.5   20.6  10.75  .0730    117    1    100.0    5 
13/10/19   4:55   16.1   16.1   16.1    87   13.9  19.0     S   1.58  25.0     S   12.5   16.2   12.7  1001.9  0.00  0.00   0.008   0.000   21.1    58   12.5   20.6  10.75  .0730    117    1    100.0    5 
13/10/19   5:00   16.1   16.1   16.1    87   13.9  20.0     S   1.67  26.0     S   12.3   16.2   12.5  1001.8  0.00  0.00   0.008   0.000   21.1    59   12.8   20.6  10.95  .0730    117    1    100.0    5 
13/10/19   5:05   16.1   16.1   16.1    87   13.9  18.0     S   1.50  22.0     S   12.7   16.3   12.8  1001.7  0.00  0.00   0.008   0.000   21.1    59   12.8   20.6  10.95  .0730    115    1    100.0    5 
13/10/19   5:10   16.1   16.1   16.1    87   13.9  18.0     S   1.50  23.0     S   12.7   16.3   12.8  1001.8  0.00  0.00   0.008   0.000   21.1    59   12.8   20.6  10.95  .0730    116    1    100.0    5 
13/10/19   5:15   16.1   16.1   16.1    87   13.9  19.0     S   1.58  24.0     S   12.6   16.3   12.7  1001.7  0.00  0.00   0.008   0.000   21.1    59   12.8   20.6  10.95  .0730    117    1    100.0    5 
13/10/19   5:20   16.2   16.2   16.1    87   14.0  20.0     S   1.67  24.0     S   12.4   16.3   12.6  1001.6  0.00  0.00   0.008   0.000   21.1    59   12.8   20.6  10.95  .0730    117    1    100.0    5 
13/10/19   5:25   16.2   16.2   16.1    87   14.0  19.0     S   1.58  24.0     S   12.6   16.3   12.8  1001.7  0.00  0.00   0.008   0.000   21.1    59   12.8   20.6  10.95  .0730    117    1    100.0    5 
13/10/19   5:30   16.3   16.3   16.2    87   14.1  21.0     S   1.75  27.0     S   12.5   16.4   12.7  1001.8  0.00  0.00   0.007   0.000   21.2    59   12.8   20.7  10.95  .0730    116    1    100.0    5 
13/10/19   5:35   16.3   16.3   16.2    87   14.1  20.0     S   1.67  25.0     S   12.6   16.4   12.8  1001.7  0.00  0.00   0.007   0.000   21.1    59   12.8   20.6  10.95  .0730    116    1    100.0    5 
13/10/19   5:40   16.3   16.3   16.3    87   14.1  22.0     S   1.83  26.0     S   12.4   16.4   12.6  1001.6  0.00  0.00   0.007   0.000   21.1    59   12.8   20.6  10.95  .0730    116    1    100.0    5 
13/10/19   5:45   16.2   16.2   16.2    87   14.1  21.0     S   1.75  28.0   SSE   12.4   16.4   12.6  1001.6  0.00  0.00   0.007   0.000   21.1    59   12.8   20.6  10.95  .0730    117    1    100.0    5 
13/10/19   5:50   16.2   16.2   16.2    86   13.9  21.0     S   1.75  28.0     S   12.4   16.4   12.6  1001.5  0.00  0.00   0.007   0.000   21.1    59   12.8   20.6  10.95  .0730    117    1    100.0    5 
13/10/19   5:55   16.2   16.2   16.2    86   13.9  19.0     S   1.58  24.0     S   12.7   16.4   12.8  1001.4  0.00  0.00   0.007   0.000   21.1    59   12.8   20.6  10.95  .0730    117    1    100.0    5 
13/10/19   6:00   16.2   16.2   16.2    86   13.9  19.0     S   1.58  24.0     S   12.7   16.4   12.8  1001.6  0.00  0.00   0.007   0.000   21.2    59   12.8   20.7  10.95  .0730    116    1    100.0    5 
13/10/19   6:05   16.2   16.2   16.2    86   13.9  19.0     S   1.58  24.0     S   12.7   16.4   12.8  1001.5  0.00  0.00   0.007   0.000   21.1    59   12.8   20.6  10.95  .0730    116    1    100.0    5 
13/10/19   6:10   16.2   16.2   16.2    86   13.9  19.0     S   1.58  26.0     S   12.7   16.4   12.8  1001.4  0.00  0.00   0.007   0.000   21.2    59   12.8   20.7  10.95  .0729    114    1    100.0    5 
13/10/19   6:15   16.2   16.2   16.2    86   13.9  17.0     S   1.42  21.0     S   12.9   16.4   13.1  1001.5  0.00  0.00   0.007   0.000   21.2    59   12.8   20.7  10.95  .0729    115    1    100.0    5 
13/10/19   6:20   16.2   16.2   16.2    86   13.9  15.0     S   1.25  19.0   SSW   13.3   16.4   13.4  1001.4  0.00  0.00   0.007   0.000   21.2    59   12.8   20.7  10.95  .0729    117    1    100.0    5 
13/10/19   6:25   16.2   16.2   16.2    86   13.9  17.0     S   1.42  21.0     S   12.9   16.4   13.1  1001.2  0.00  0.00   0.007   0.000   21.2    60   13.1   20.7  11.05  .0729    116    1    100.0    5 
13/10/19   6:30   16.2   16.2   16.2    86   13.8  15.0     S   1.25  20.0     S   13.2   16.3   13.3  1001.3  0.00  0.00   0.008   0.000   21.1    60   13.0   20.7  11.05  .0729    116    1    100.0    5 
13/10/19   6:35   16.2   16.2   16.2    86   13.8  16.0     S   1.33  21.0     S   13.1   16.3   13.2  1001.1  0.00  0.00   0.008   0.000   21.2    60   13.1   20.7  11.05  .0729    115    1    100.0    5 
13/10/19   6:40   16.2   16.2   16.2    86   13.8  15.0     S   1.25  19.0     S   13.2   16.3   13.3  1001.0  0.00  0.00   0.008   0.000   21.2    60   13.1   20.7  11.05  .0729    117    1    100.0    5 
13/10/19   6:45   16.2   16.2   16.2    86   13.8  17.0     S   1.42  21.0     S   12.9   16.3   13.0  1001.1  0.00  0.00   0.008   0.000   21.2    60   13.1   20.7  11.05  .0729    117    1    100.0    5 
13/10/19   6:50   16.2   16.2   16.2    86   13.8  15.0     S   1.25  20.0     S   13.2   16.3   13.3  1001.1  0.00  0.00   0.008   0.000   21.2    60   13.1   20.7  11.05  .0729    116    1    100.0    5 
13/10/19   6:55   16.2   16.2   16.2    86   13.9  17.0     S   1.42  21.0     S   12.9   16.4   13.1  1001.0  0.00  0.00   0.007   0.000   21.2    60   13.1   20.7  11.05  .0729    117    1    100.0    5 
13/10/19   7:00   16.2   16.2   16.2    86   13.9  17.0     S   1.42  21.0     S   12.9   16.4   13.1  1001.1  0.00  0.00   0.007   0.000   21.2    60   13.1   20.7  11.05  .0729    117    1    100.0    5 
13/10/19   7:05   16.2   16.2   16.2    86   13.9  17.0     S   1.42  21.0     S   12.9   16.4   13.1  1001.0  0.00  0.00   0.007   0.000   21.2    60   13.1   20.7  11.05  .0729    116    1    100.0    5 
13/10/19   7:10   16.3   16.3   16.2    86   13.9  15.0     S   1.25  19.0     S   13.3   16.4   13.5  1000.9  0.00  0.00   0.007   0.000   21.2    60   13.1   20.7  11.05  .0729    117    1    100.0    5 
13/10/19   7:15   16.2   16.3   16.2    86   13.9  18.0     S   1.50  22.0     S   12.8   16.4   12.9  1000.9  0.00  0.00   0.007   0.000   21.2    60   13.1   20.7  11.05  .0729    115    1    100.0    5 
13/10/19   7:20   16.3   16.3   16.2    86   13.9  18.0     S   1.50  21.0     S   12.8   16.4   13.0  1000.6  0.00  0.00   0.007   0.000   21.2    60   13.1   20.7  11.05  .0729    116    1    100.0    5 
13/10/19   7:25   16.3   16.3   16.2    86   13.9  18.0     S   1.50  21.0     S   12.8   16.4   13.0  1000.7  0.00  0.00   0.007   0.000   21.2    60   13.1   20.7  11.05  .0729    116    1    100.0    5 
13/10/19   7:30   16.3   16.3   16.3    86   13.9  16.0     S   1.33  19.0     S   13.2   16.4   13.3  1000.7  0.00  0.00   0.007   0.000   21.2    60   13.1   20.7  11.05  .0729    118    1    100.0    5 
13/10/19   7:35   16.3   16.3   16.3    86   13.9  17.0     S   1.42  21.0     S   13.0   16.4   13.2  1000.7  0.00  0.00   0.007   0.000   21.2    60   13.1   20.8  11.05  .0729    117    1    100.0    5 
13/10/19   7:40   16.3   16.3   16.3    86   13.9  17.0     S   1.42  21.0     S   13.0   16.4   13.2  1000.7  0.00  0.00   0.007   0.000   21.2    60   13.1   20.8  11.05  .0729    117    1    100.0    5 
13/10/19   7:45   16.3   16.3   16.3    85   13.8  14.0     S   1.17  20.0     S   13.6   16.4   13.7  1000.7  0.00  0.00   0.007   0.000   21.2    60   13.1   20.8  11.05  .0729    116    1    100.0    5 
13/10/19   7:50   16.4   16.4   16.3    85   13.9  16.0     S   1.33  23.0     S   13.3   16.6   13.5  1000.6  0.00  0.00   0.007   0.000   21.2    60   13.1   20.8  11.05  .0728    117    1    100.0    5 
13/10/19   7:55   16.4   16.4   16.3    85   13.9  17.0     S   1.42  21.0     S   13.2   16.6   13.3  1000.5  0.00  0.00   0.007   0.000   21.2    60   13.1   20.8  11.05  .0728    116    1    100.0    5 
13/10/19   8:00   16.4   16.4   16.4    85   13.9  17.0     S   1.42  20.0     S   13.2   16.6   13.4  1000.7  0.00  0.00   0.007   0.000   21.2    60   13.1   20.8  11.05  .0729    116    1    100.0    5 
13/10/19   8:05   16.4   16.4   16.4    85   13.9  18.0     S   1.50  21.0     S   13.1   16.6   13.2  1000.6  0.00  0.00   0.007   0.000   21.2    60   13.1   20.8  11.05  .0728    117    1    100.0    5 
13/10/19   8:10   16.5   16.5   16.4    85   14.0  17.0     S   1.42  20.0     S   13.3   16.7   13.4  1000.7  0.00  0.00   0.006   0.000   21.3    60   13.2   20.9  11.04  .0728    115    1    100.0    5 
13/10/19   8:15   16.5   16.5   16.5    85   14.0  17.0     S   1.42  21.0     S   13.3   16.7   13.4  1000.6  0.00  0.00   0.006   0.000   21.2    60   13.1   20.8  11.05  .0728    116    1    100.0    5 
13/10/19   8:20   16.6   16.6   16.5    85   14.0  17.0     S   1.42  20.0     S   13.3   16.7   13.5  1000.6  0.00  0.00   0.006   0.000   21.3    60   13.2   20.9  11.04  .0728    116    1    100.0    5 
13/10/19   8:25   16.6   16.6   16.6    85   14.0  17.0     S   1.42  21.0   SSW   13.3   16.7   13.5  1000.5  0.00  0.00   0.006   0.000   21.3    60   13.2   20.9  11.04  .0728    117    1    100.0    5 
13/10/19   8:30   16.6   16.6   16.6    85   14.0  18.0     S   1.50  22.0     S   13.2   16.7   13.3  1000.5  0.00  0.00   0.006   0.000   21.3    60   13.2   20.9  11.04  .0728    116    1    100.0    5 
13/10/19   8:35   16.6   16.6   16.6    85   14.1  17.0     S   1.42  21.0     S   13.4   16.8   13.6  1000.6  0.00  0.00   0.006   0.000   21.3    60   13.2   20.9  11.04  .0728    118    1    100.0    5 
13/10/19   8:40   16.6   16.6   16.6    85   14.1  16.0     S   1.33  20.0     S   13.6   16.8   13.7  1000.6  0.00  0.00   0.006   0.000   21.3    60   13.2   20.9  11.04  .0728    117    1    100.0    5 
13/10/19   8:45   16.6   16.6   16.6    85   14.1  17.0     S   1.42  21.0     S   13.4   16.8   13.6  1000.5  0.00  0.00   0.006   0.000   21.3    60   13.2   20.9  11.04  .0728    117    1    100.0    5 
13/10/19   8:50   16.7   16.7   16.6    85   14.1  16.0     S   1.33  20.0     S   13.6   16.8   13.8  1000.5  0.00  0.00   0.006   0.000   21.3    60   13.2   20.9  11.04  .0728    116    1    100.0    5 
13/10/19   8:55   16.7   16.7   16.6    85   14.1  18.0     S   1.50  21.0     S   13.3   16.8   13.4  1000.4  0.00  0.00   0.006   0.000   21.3    60   13.2   20.9  11.04  .0728    116    1    100.0    5 
13/10/19   9:00   16.7   16.7   16.7    84   14.0  19.0     S   1.58  22.0     S   13.2   16.9   13.4  1000.5  0.00  0.00   0.006   0.000   21.3    60   13.2   20.9  11.04  .0728    117    1    100.0    5 
13/10/19   9:05   16.8   16.8   16.7    84   14.1  19.0     S   1.58  22.0     S   13.3   16.9   13.4  1000.5  0.00  0.00   0.005   0.000   21.4    61   13.6   21.1  11.23  .0728    117    1    100.0    5 
13/10/19   9:10   16.8   16.8   16.7    84   14.1  19.0     S   1.58  23.0     S   13.3   16.9   13.4  1000.4  0.00  0.00   0.005   0.000   21.4    61   13.6   21.1  11.23  .0728    116    1    100.0    5 
13/10/19   9:15   16.8   16.8   16.8    84   14.1  20.0     S   1.67  25.0     S   13.2   16.9   13.3  1000.5  0.00  0.00   0.005   0.000   21.4    61   13.6   21.1  11.23  .0728    117    1    100.0    5 
13/10/19   9:20   16.8   16.8   16.8    83   13.9  20.0     S   1.67  23.0     S   13.2   17.0   13.4  1000.5  0.00  0.00   0.005   0.000   21.4    61   13.6   21.1  11.23  .0728    115    1    100.0    5 
13/10/19   9:25   16.8   16.8   16.8    83   13.9  19.0     S   1.58  23.0     S   13.3   17.0   13.5  1000.5  0.00  0.00   0.005   0.000   21.4    61   13.6   21.1  11.23  .0728    117    1    100.0    5 
13/10/19   9:30   16.9   16.9   16.8    83   14.0  20.0     S   1.67  24.0     S   13.3   17.1   13.4  1000.4  0.00  0.00   0.005   0.000   21.4    61   13.6   21.1  11.23  .0728    117    1    100.0    5 
13/10/19   9:35   16.9   16.9   16.8    83   14.0  20.0     S   1.67  25.0     S   13.3   17.1   13.4  1000.3  0.00  0.00   0.005   0.000   21.4    61   13.6   21.2  11.23  .0727    116    1    100.0    5 
13/10/19   9:40   16.9   16.9   16.9    83   14.0  20.0     S   1.67  24.0     S   13.4   17.1   13.6  1000.3  0.00  0.00   0.005   0.000   21.4    61   13.6   21.2  11.23  .0727    117    1    100.0    5 
13/10/19   9:45   16.9   16.9   16.9    83   14.0  19.0     S   1.58  22.0     S   13.5   17.1   13.7  1000.4  0.00  0.00   0.005   0.000   21.4    61   13.6   21.2  11.23  .0727    117    1    100.0    5 
13/10/19   9:50   16.9   16.9   16.9    83   14.0  20.0     S   1.67  24.0     S   13.4   17.1   13.6  1000.4  0.00  0.00   0.005   0.000   21.4    61   13.6   21.2  11.23  .0727    115    1    100.0    5 
13/10/19   9:55   17.0   17.0   16.9    83   14.1  20.0     S   1.67  24.0     S   13.4   17.2   13.7  1000.3  0.00  0.00   0.005   0.000   21.5    61   13.7   21.2  11.22  .0727    116    1    100.0    5 
13/10/19  10:00   17.0   17.0   17.0    83   14.1  20.0     S   1.67  25.0     S   13.4   17.2   13.7  1000.4  0.00  0.00   0.005   0.000   21.5    61   13.7   21.2  11.22  .0727    117    1    100.0    5 
13/10/19  10:05   17.0   17.0   17.0    83   14.1  20.0     S   1.67  24.0     S   13.4   17.2   13.7  1000.4  0.00  0.00   0.005   0.000   21.5    61   13.7   21.2  11.22  .0727    117    1    100.0    5 
13/10/19  10:10   17.0   17.0   17.0    83   14.1  19.0     S   1.58  24.0     S   13.6   17.2   13.8  1000.4  0.00  0.00   0.005   0.000   21.6    61   13.7   21.3  11.22  .0727    117    1    100.0    5 
13/10/19  10:15   17.0   17.1   17.0    83   14.1  21.0     S   1.75  27.0     S   13.3   17.2   13.6  1000.4  0.00  0.00   0.005   0.000   21.5    61   13.7   21.2  11.22  .0727    117    1    100.0    5 
13/10/19  10:20   17.1   17.1   17.0    83   14.1  20.0     S   1.67  25.0     S   13.5   17.3   13.7  1000.4  0.00  0.00   0.004   0.000   21.6    61   13.7   21.3  11.22  .0727    116    1    100.0    5 
13/10/19  10:25   17.1   17.1   17.1    83   14.1  19.0     S   1.58  24.0     S   13.6   17.3   13.8  1000.5  0.00  0.00   0.004   0.000   21.6    61   13.7   21.3  11.22  .0727    117    1    100.0    5 
13/10/19  10:30   17.1   17.1   17.1    83   14.2  21.0     S   1.75  25.0     S   13.4   17.3   13.7  1000.4  0.00  0.00   0.004   0.000   21.6    61   13.7   21.3  11.22  .0727    116    1    100.0    5 
13/10/19  10:35   17.2   17.2   17.1    82   14.1  21.0     S   1.75  25.0     S   13.6   17.4   13.8  1000.4  0.00  0.00   0.004   0.000   21.6    61   13.7   21.3  11.22  .0727    117    1    100.0    5 
13/10/19  10:40   17.2   17.2   17.2    82   14.1  21.0     S   1.75  27.0     S   13.6   17.4   13.8  1000.4  0.00  0.00   0.004   0.000   21.6    61   13.7   21.3  11.22  .0727    116    1    100.0    5 
13/10/19  10:45   17.2   17.2   17.2    82   14.1  20.0     S   1.67  24.0     S   13.7   17.4   13.9  1000.5  0.00  0.00   0.004   0.000   21.6    61   13.8   21.4  11.21  .0727    116    1    100.0    5 
13/10/19  10:50   17.3   17.3   17.2    82   14.2  22.0     S   1.83  29.0     S   13.5   17.5   13.7  1000.3  0.00  0.00   0.004   0.000   21.6    61   13.8   21.4  11.21  .0727    117    1    100.0    5 
13/10/19  10:55   17.3   17.3   17.3    82   14.2  22.0     S   1.83  28.0     S   13.6   17.6   13.8  1000.4  0.00  0.00   0.003   0.000   21.6    61   13.8   21.4  11.21  .0727    117    1    100.0    5 
13/10/19  11:00   17.3   17.3   17.3    82   14.2  21.0     S   1.75  28.0     S   13.7   17.6   13.9  1000.5  0.00  0.00   0.003   0.000   21.7    61   13.8   21.4  11.21  .0727    117    1    100.0    5 
13/10/19  11:05   17.3   17.3   17.3    82   14.2  20.0     S   1.67  23.0     S   13.7   17.5   13.9  1000.5  0.00  0.00   0.004   0.000   21.7    61   13.8   21.4  11.21  .0727    117    1    100.0    5 
13/10/19  11:10   17.3   17.3   17.3    82   14.2  22.0     S   1.83  29.0     S   13.6   17.6   13.8  1000.5  0.00  0.00   0.003   0.000   21.7    61   13.8   21.4  11.21  .0727    117    1    100.0    5 
13/10/19  11:15   17.3   17.4   17.3    82   14.2  20.0     S   1.67  25.0     S   13.8   17.6   14.0  1000.6  0.00  0.00   0.003   0.000   21.7    61   13.8   21.4  11.21  .0727    117    1    100.0    5 
13/10/19  11:20   17.3   17.3   17.3    82   14.2  22.0     S   1.83  27.0   SSW   13.5   17.5   13.7  1000.6  0.00  0.00   0.004   0.000   21.7    61   13.8   21.4  11.21  .0727    116    1    100.0    5 
13/10/19  11:25   17.3   17.3   17.3    82   14.2  19.0   SSW   1.58  26.0   SSW   13.8   17.5   14.1  1000.7  0.00  0.00   0.004   0.000   21.7    61   13.8   21.4  11.21  .0727    117    1    100.0    5 
13/10/19  11:30   17.2   17.3   17.2    82   14.1  19.0   SSW   1.58  29.0   SSW   13.8   17.4   14.0  1000.7  0.00  0.00   0.004   0.000   21.7    61   13.8   21.4  11.21  .0727    117    1    100.0    5 
13/10/19  11:35   17.2   17.2   17.2    82   14.1  20.0   SSW   1.67  27.0   SSW   13.6   17.4   13.8  1000.7  0.00  0.00   0.004   0.000   21.7    61   13.9   21.5  11.21  .0727    116    1    100.0    5 
13/10/19  11:40   17.1   17.2   17.1    82   14.0  20.0   SSW   1.67  26.0   SSW   13.6   17.3   13.8  1000.7  0.00  0.00   0.004   0.000   21.7    61   13.9   21.5  11.21  .0727    117    1    100.0    5 
13/10/19  11:45   17.1   17.2   17.1    82   14.0  22.0   SSW   1.83  30.0   SSW   13.3   17.3   13.6  1000.8  0.00  0.00   0.004   0.000   21.7    61   13.9   21.5  11.21  .0727    117    1    100.0    5 
13/10/19  11:50   17.0   17.1   17.0    82   13.9  25.0   SSW   2.08  33.0   SSW   12.9   17.2   13.1  1001.1  0.00  0.00   0.005   0.000   21.7    61   13.9   21.5  11.21  .0727    117    1    100.0    5 
13/10/19  11:55   16.8   17.0   16.8    83   13.9  25.0   SSW   2.08  32.0    SW   12.7   17.0   12.9  1001.2  0.00  0.00   0.005   0.000   21.7    61   13.9   21.5  11.21  .0727    116    1    100.0    5 
13/10/19  12:00   16.4   16.8   16.4    83   13.5  23.0    SW   1.92  29.0    SW   12.4   16.6   12.6  1001.4  0.00  0.00   0.007   0.000   21.7    61   13.9   21.5  11.21  .0727    117    1    100.0    5 
13/10/19  12:05   16.3   16.4   16.3    84   13.6  23.0    SW   1.92  29.0    SW   12.3   16.4   12.4  1001.4  0.00  0.00   0.007   0.000   21.7    61   13.9   21.5  11.21  .0727    115    1    100.0    5 
13/10/19  12:10   16.2   16.3   16.2    84   13.5  22.0    SW   1.83  28.0    SW   12.3   16.3   12.4  1001.5  0.00  0.00   0.007   0.000   21.8    61   13.9   21.6  11.20  .0727    117    1    100.0    5 
13/10/19  12:15   16.1   16.2   16.1    84   13.4  24.0    SW   2.00  30.0    SW   12.0   16.2   12.1  1001.5  0.00  0.00   0.008   0.000   21.8    61   13.9   21.6  11.20  .0727    116    1    100.0    5 
13/10/19  12:20   16.1   16.1   16.1    84   13.4  22.0    SW   1.83  28.0    SW   12.2   16.2   12.3  1001.6  0.00  0.00   0.008   0.000   21.8    62   14.2   21.6  11.33  .0727    116    1    100.0    5 
13/10/19  12:25   16.1   16.1   16.1    85   13.6  21.0    SW   1.75  25.0    SW   12.3   16.2   12.4  1001.7  0.00  0.00   0.008   0.000   21.8    61   14.0   21.7  11.20  .0727    116    1    100.0    5 
13/10/19  12:30   16.1   16.1   16.1    85   13.5  20.0    SW   1.67  27.0   WSW   12.3   16.2   12.4  1001.7  0.00  0.00   0.008   0.000   21.8    61   14.0   21.7  11.20  .0727    115    1    100.0    5 
13/10/19  12:35   15.9   16.1   15.9    85   13.4  22.0    SW   1.83  30.0   WSW   11.9   16.0   12.1  1001.9  0.00  0.00   0.008   0.000   21.8    62   14.2   21.7  11.32  .0727    117    1    100.0    5 
13/10/19  12:40   15.8   15.9   15.8    85   13.3  23.0    SW   1.92  28.0    SW   11.8   15.9   11.9  1001.9  0.00  0.00   0.009   0.000   21.9    61   14.0   21.7  11.19  .0727    116    1    100.0    5 
13/10/19  12:45   15.8   15.8   15.8    84   13.1  20.0    SW   1.67  25.0   WSW   12.0   15.8   12.1  1002.1  0.00  0.00   0.009   0.000   21.8    61   14.0   21.7  11.20  .0727    117    1    100.0    5 
13/10/19  12:50   15.7   15.8   15.7    84   13.0  21.0   WSW   1.75  26.0    SW   11.8   15.7   11.8  1002.1  0.00  0.00   0.009   0.000   21.9    61   14.0   21.7  11.19  .0727    117    1    100.0    5 
13/10/19  12:55   15.7   15.7   15.7    84   13.0  21.0    SW   1.75  28.0   WSW   11.8   15.8   11.9  1002.2  0.00  0.00   0.009   0.000   21.9    61   14.0   21.7  11.19  .0727    114    1    100.0    5 
13/10/19  13:00   15.7   15.7   15.7    84   13.0  18.0    SW   1.50  23.0    SW   12.2   15.8   12.3  1002.3  0.00  0.00   0.009   0.000   21.9    61   14.0   21.7  11.19  .0727    116    1    100.0    5 
13/10/19  13:05   15.6   15.7   15.6    84   12.9  19.0    SW   1.58  25.0   WSW   11.9   15.7   12.0  1002.2  0.00  0.00   0.009   0.000   21.9    61   14.0   21.7  11.19  .0727    117    1    100.0    5 
13/10/19  13:10   15.3   15.6   15.3    84   12.6  20.0   WSW   1.67  27.0     W   11.6   15.3   11.6  1002.3  0.00  0.00   0.010   0.000   21.9    61   14.0   21.7  11.19  .0727    116    1    100.0    5 
13/10/19  13:15   15.4   15.4   15.3    84   12.7  19.0   WSW   1.58  24.0   WSW   11.7   15.4   11.7  1002.1  0.00  0.00   0.010   0.000   21.9    61   14.0   21.7  11.19  .0727    117    1    100.0    5 
13/10/19  13:20   15.3   15.4   15.3    84   12.6  18.0   WSW   1.50  24.0    SW   11.8   15.3   11.8  1002.3  0.00  0.00   0.010   0.000   21.9    61   14.0   21.7  11.19  .0727    116    1    100.0    5 
13/10/19  13:25   15.4   15.4   15.3    84   12.7  18.0    SW   1.50  22.0    SW   11.8   15.4   11.8  1002.3  0.00  0.00   0.010   0.000   21.9    61   14.1   21.8  11.19  .0727    117    1    100.0    5 
13/10/19  13:30   15.4   15.4   15.4    84   12.8  18.0    SW   1.50  24.0   WSW   11.9   15.4   11.9  1002.4  0.00  0.00   0.010   0.000   21.9    61   14.1   21.8  11.19  .0727    116    1    100.0    5 
13/10/19  13:35   15.4   15.4   15.4    84   12.8  20.0    SW   1.67  25.0    SW   11.7   15.4   11.7  1002.4  0.00  0.00   0.010   0.000   21.9    61   14.1   21.8  11.19  .0727    116    1    100.0    5 
13/10/19  13:40   15.6   15.6   15.4    84   12.9  19.0    SW   1.58  24.0    SW   11.9   15.6   11.9  1002.5  0.00  0.00   0.010   0.000   21.9    61   14.1   21.8  11.19  .0727    116    1    100.0    5 
13/10/19  13:45   15.6   15.6   15.6    84   12.9  18.0    SW   1.50  23.0    SW   12.1   15.7   12.2  1002.5  0.00  0.00   0.009   0.000   22.0    61   14.1   21.9  11.19  .0727    116    1    100.0    5 
13/10/19  13:50   15.7   15.7   15.6    84   13.0  19.0    SW   1.58  25.0    SW   12.0   15.7   12.1  1002.6  0.00  0.00   0.009   0.000   22.0    61   14.1   21.9  11.19  .0727    118    1    100.0    5 
13/10/19  13:55   15.7   15.7   15.7    84   13.0  19.0    SW   1.58  24.0    SW   12.0   15.7   12.1  1002.7  0.00  0.00   0.009   0.000   22.0    61   14.1   21.9  11.19  .0727    116    1    100.0    5 
13/10/19  14:00   15.7   15.7   15.6    84   13.0  19.0    SW   1.58  24.0    SW   12.0   15.7   12.1  1002.8  0.00  0.00   0.009   0.000   22.0    61   14.1   21.9  11.19  .0727    117    1    100.0    5 
13/10/19  14:05   15.7   15.7   15.6    83   12.8  22.0   WSW   1.83  28.0    SW   11.7   15.7   11.7  1003.0  0.00  0.00   0.009   0.000   22.0    61   14.1   21.9  11.19  .0728    116    1    100.0    5 
13/10/19  14:10   15.8   15.8   15.7    84   13.1  18.0    SW   1.50  23.0   WSW   12.3   15.8   12.3  1003.0  0.00  0.00   0.009   0.000   22.0    61   14.1   21.9  11.19  .0728    116    1    100.0    5 
13/10/19  14:15   15.7   15.8   15.7    84   13.0  17.0   WSW   1.42  21.0   WSW   12.3   15.7   12.3  1003.0  0.00  0.00   0.009   0.000   22.0    61   14.1   21.9  11.19  .0728    115    1    100.0    5 
13/10/19  14:20   15.7   15.7   15.7    84   13.0  20.0   WSW   1.67  24.0   WSW   11.9   15.7   11.9  1003.0  0.00  0.00   0.009   0.000   22.1    61   14.2   22.0  11.18  .0727    115    1    100.0    5 
13/10/19  14:25   15.6   15.7   15.6    84   12.9  18.0    SW   1.50  23.0    SW   12.1   15.7   12.2  1003.3  0.00  0.00   0.009   0.000   22.0    61   14.1   21.9  11.19  .0728    116    1    100.0    5 
13/10/19  14:30   15.6   15.6   15.6    84   12.9  18.0   WSW   1.50  22.0   WSW   12.1   15.7   12.2  1003.3  0.00  0.00   0.009   0.000   22.0    61   14.1   21.9  11.19  .0728    117    1    100.0    5 
13/10/19  14:35   15.7   15.7   15.6    84   13.0  17.0    SW   1.42  23.0    SW   12.3   15.7   12.3  1003.4  0.00  0.00   0.009   0.000   22.1    61   14.2   22.0  11.18  .0728    117    1    100.0    5 
13/10/19  14:40   15.7   15.7   15.6    84   13.0  18.0    SW   1.50  24.0    SW   12.2   15.7   12.2  1003.6  0.00  0.00   0.009   0.000   22.0    61   14.1   21.9  11.19  .0728    116    1    100.0    5 
13/10/19  14:45   15.7   15.8   15.7    84   13.0  18.0   WSW   1.50  23.0   WSW   12.2   15.8   12.3  1003.6  0.00  0.00   0.009   0.000   22.0    61   14.1   21.9  11.19  .0728    117    1    100.0    5 
13/10/19  14:50   15.7   15.7   15.7    83   12.8  17.0   WSW   1.42  22.0   WSW   12.4   15.7   12.4  1003.6  0.00  0.00   0.009   0.000   22.0    61   14.1   21.9  11.19  .0728    115    1    100.0    5 
13/10/19  14:55   15.8   15.8   15.7    83   12.9  16.0   WSW   1.33  21.0   WSW   12.6   15.8   12.7  1003.7  0.00  0.00   0.009   0.000   22.0    61   14.1   21.9  11.19  .0728    118    1    100.0    5 
13/10/19  15:00   15.7   15.8   15.7    83   12.8  18.0   WSW   1.50  25.0   WSW   12.2   15.7   12.2  1003.8  0.00  0.00   0.009   0.000   22.1    61   14.2   22.0  11.18  .0728    117    1    100.0    5 
13/10/19  15:05   15.5   15.7   15.4    84   12.8  20.0   WSW   1.67  26.0   WSW   11.7   15.6   11.8  1003.9  0.00  0.00   0.010   0.000   22.1    61   14.2   22.0  11.18  .0728    117    1    100.0    5 
13/10/19  15:10   15.6   15.6   15.5    84   12.9  19.0   WSW   1.58  23.0    SW   11.9   15.7   12.0  1004.0  0.00  0.00   0.009   0.000   22.1    61   14.2   22.0  11.18  .0728    116    1    100.0    5 
13/10/19  15:15   15.6   15.6   15.6    84   12.9  18.0    SW   1.50  25.0   WSW   12.1   15.6   12.1  1004.0  0.00  0.00   0.010   0.000   22.0    61   14.1   21.9  11.19  .0728    117    1    100.0    5 
13/10/19  15:20   15.7   15.7   15.6    84   13.0  17.0   WSW   1.42  23.0   WSW   12.4   15.8   12.4  1004.1  0.00  0.00   0.009   0.000   22.1    61   14.2   22.0  11.18  .0728    116    1    100.0    5 
13/10/19  15:25   15.7   15.7   15.7    83   12.8  18.0   WSW   1.50  23.0   WSW   12.2   15.7   12.2  1004.2  0.00  0.00   0.009   0.000   22.1    61   14.2   22.0  11.18  .0728    114    1    100.0    5 
13/10/19  15:30   15.7   15.7   15.7    83   12.8  18.0   WSW   1.50  22.0   WSW   12.2   15.7   12.2  1004.1  0.00  0.00   0.009   0.000   22.1    61   14.2   22.0  11.18  .0728    116    1    100.0    5 
13/10/19  15:35   15.8   15.8   15.7    83   12.9  17.0    SW   1.42  22.0    SW   12.4   15.8   12.5  1004.3  0.00  0.00   0.009   0.000   22.1    61   14.2   22.0  11.18  .0728    116    1    100.0    5 
13/10/19  15:40   15.7   15.8   15.7    83   12.8  17.0   WSW   1.42  24.0   WSW   12.3   15.7   12.3  1004.4  0.00  0.00   0.009   0.000   22.1    61   14.2   22.0  11.18  .0728    116    1    100.0    5 
13/10/19  15:45   15.8   15.8   15.7    83   12.9  19.0   WSW   1.58  25.0   WSW   12.2   15.8   12.2  1004.6  0.00  0.00   0.009   0.000   22.1    61   14.2   22.0  11.18  .0729    117    1    100.0    5 
13/10/19  15:50   15.7   15.8   15.7    83   12.8  18.0   WSW   1.50  25.0   WSW   12.2   15.7   12.2  1004.6  0.00  0.00   0.009   0.000   22.1    61   14.2   22.0  11.18  .0729    116    1    100.0    5 
13/10/19  15:55   14.7   15.7   14.7    82   11.7  22.0   WSW   1.83  30.0    SW   10.6   14.7   10.6  1004.6  0.00  0.00   0.013   0.000   22.1    61   14.2   22.0  11.18  .0729    117    1    100.0    5 
13/10/19  16:00   14.8   14.8   14.8    83   12.0  18.0    SW   1.50  23.0    SW   11.2   14.8   11.2  1004.6  0.00  0.00   0.012   0.000   22.1    61   14.2   22.0  11.18  .0729    116    1    100.0    5 
13/10/19  16:05   15.1   15.1   14.8    83   12.2  18.0    SW   1.50  24.0   WSW   11.5   15.1   11.4  1004.4  0.00  0.00   0.011   0.000   22.1    61   14.2   22.0  11.18  .0728    116    1    100.0    5 
13/10/19  16:10   15.3   15.3   15.1    83   12.4  19.0   WSW   1.58  23.0   WSW   11.6   15.3   11.6  1004.6  0.00  0.00   0.011   0.000   22.1    61   14.2   22.0  11.18  .0729    116    1    100.0    5 
13/10/19  16:15   15.3   15.3   15.3    82   12.3  18.0   WSW   1.50  26.0   WSW   11.8   15.3   11.7  1004.6  0.00  0.00   0.010   0.000   22.1    61   14.2   22.0  11.18  .0729    116    1    100.0    5 
13/10/19  16:20   15.4   15.4   15.3    82   12.4  15.0   WSW   1.25  24.0   WSW   12.4   15.4   12.4  1004.7  0.00  0.00   0.010   0.000   22.1    61   14.2   22.1  11.18  .0729    116    1    100.0    5 
13/10/19  16:25   15.6   15.6   15.4    82   12.5  14.0   WSW   1.17  20.0   WSW   12.8   15.6   12.8  1004.9  0.00  0.00   0.009   0.000   22.1    61   14.2   22.1  11.18  .0729    117    1    100.0    5 
13/10/19  16:30   15.7   15.7   15.6    82   12.7  15.0   WSW   1.25  22.0   WSW   12.7   15.7   12.7  1004.9  0.00  0.00   0.009   0.000   22.1    61   14.2   22.1  11.18  .0729    116    1    100.0    5 
13/10/19  16:35   15.7   15.7   15.7    82   12.7  16.0   WSW   1.33  23.0   WSW   12.6   15.7   12.6  1005.0  0.00  0.00   0.009   0.000   22.1    61   14.2   22.1  11.18  .0729    116    1    100.0    5 
13/10/19  16:40   15.9   15.9   15.7    82   12.8  17.0   WSW   1.42  23.0   WSW   12.6   15.9   12.6  1005.0  0.00  0.00   0.008   0.000   22.1    61   14.2   22.1  11.18  .0729    115    1    100.0    5 
13/10/19  16:45   15.7   15.9   15.7    80   12.2  19.0   WSW   1.58  27.0   WSW   12.0   15.6   11.9  1005.1  0.00  0.00   0.009   0.000   22.2    61   14.3   22.1  11.17  .0729    117    1    100.0    5 
13/10/19  16:50   15.7   15.8   15.7    80   12.3  16.0   WSW   1.33  23.0   WSW   12.6   15.7   12.5  1005.3  0.00  0.00   0.009   0.000   22.2    61   14.3   22.1  11.17  .0729    117    1    100.0    5 
13/10/19  16:55   15.7   15.8   15.7    79   12.1  15.0   WSW   1.25  22.0   WSW   12.7   15.7   12.7  1005.5  0.00  0.00   0.009   0.000   22.2    61   14.3   22.1  11.17  .0729    117    1    100.0    5 
13/10/19  17:00   15.7   15.7   15.7    79   12.0  14.0   WSW   1.17  22.0   WSW   12.8   15.6   12.8  1005.5  0.00  0.00   0.009   0.000   22.2    61   14.3   22.1  11.17  .0729    118    1    100.0    5 
13/10/19  17:05   15.6   15.7   15.6    79   11.9  14.0   WSW   1.17  20.0   WSW   12.7   15.4   12.6  1005.6  0.00  0.00   0.010   0.000   22.2    61   14.3   22.2  11.17  .0729    116    1    100.0    5 
13/10/19  17:10   15.4   15.6   15.4    79   11.8  11.0   WSW   0.92  17.0   WSW   13.3   15.3   13.2  1005.6  0.00  0.00   0.010   0.000   22.2    61   14.3   22.2  11.17  .0729    117    1    100.0    5 
13/10/19  17:15   15.3   15.4   15.3    79   11.7   9.0   WSW   0.75  19.0   WSW   13.9   15.2   13.8  1005.5  0.00  0.00   0.011   0.000   22.2    61   14.3   22.2  11.17  .0729    117    1    100.0    5 
13/10/19  17:20   15.3   15.3   15.3    79   11.7  12.0   WSW   1.00  23.0   WSW   12.9   15.2   12.8  1005.6  0.00  0.00   0.011   0.000   22.2    61   14.3   22.2  11.17  .0729    116    1    100.0    5 
13/10/19  17:25   15.2   15.2   15.2    79   11.5  12.0   WSW   1.00  20.0     W   12.8   15.1   12.7  1005.8  0.00  0.00   0.011   0.000   22.2    61   14.3   22.2  11.17  .0729    117    1    100.0    5 
13/10/19  17:30   15.2   15.2   15.2    79   11.5  11.0   WSW   0.92  21.0     W   13.1   15.1   12.9  1005.7  0.00  0.00   0.011   0.000   22.2    60   14.1   22.2  11.01  .0729    115    1    100.0    5 
13/10/19  17:35   15.0   15.2   15.0    78   11.2  13.0   WSW   1.08  21.0   WSW   12.3   14.8   12.1  1006.0  0.00  0.00   0.012   0.000   22.2    60   14.1   22.2  11.01  .0729    114    1    100.0    5 
13/10/19  17:40   15.0   15.0   15.0    78   11.2  10.0   WSW   0.83  17.0   WSW   13.2   14.8   13.1  1006.0  0.00  0.00   0.012   0.000   22.2    60   14.1   22.2  11.01  .0729    116    1    100.0    5 
13/10/19  17:45   14.9   15.0   14.9    78   11.1   9.0   WSW   0.75  17.0   WSW   13.6   14.8   13.4  1006.0  0.00  0.00   0.012   0.000   22.2    60   14.0   22.1  11.01  .0729    117    1    100.0    5 
13/10/19  17:50   14.9   14.9   14.9    79   11.3   7.0   WSW   0.58  18.0   WSW   14.3   14.7   14.2  1006.1  0.00  0.00   0.012   0.000   22.2    60   14.0   22.1  11.01  .0730    116    1    100.0    5 
13/10/19  17:55   14.8   14.9   14.8    79   11.2   4.0   WSW   0.33  16.0   WSW   14.8   14.6   14.6  1006.2  0.00  0.00   0.012   0.000   22.2    60   14.0   22.1  11.01  .0730    117    1    100.0    5 
13/10/19  18:00   14.7   14.8   14.7    79   11.1   8.0   WSW   0.67  20.0   WSW   13.7   14.6   13.6  1006.4  0.00  0.00   0.013   0.000   22.2    60   14.0   22.1  11.01  .0730    117    1    100.0    5 
13/10/19  18:05   14.7   14.7   14.7    79   11.1   9.0   WSW   0.75  18.0   WSW   13.3   14.6   13.1  1006.6  0.00  0.00   0.013   0.000   22.1    60   14.0   22.0  11.01  .0730    117    1    100.0    5 
13/10/19  18:10   14.6   14.7   14.6    79   11.0  10.0   WSW   0.83  17.0   WSW   12.8   14.4   12.6  1006.6  0.00  0.00   0.013   0.000   22.1    60   14.0   22.0  11.01  .0730    117    1    100.0    5 
13/10/19  18:15   14.6   14.6   14.6    79   11.0   7.0   WSW   0.58  13.0   WSW   13.9   14.4   13.7  1006.7  0.00  0.00   0.013   0.000   22.1    60   14.0   22.0  11.01  .0730    117    1    100.0    5 
13/10/19  18:20   14.5   14.6   14.5    80   11.1   5.0   WSW   0.42  11.0   WSW   14.3   14.4   14.2  1007.0  0.00  0.00   0.013   0.000   22.1    60   14.0   22.0  11.01  .0730    117    1    100.0    5 
13/10/19  18:25   14.4   14.5   14.4    80   11.0   6.0     W   0.50  12.0   WSW   14.0   14.3   13.9  1007.1  0.00  0.00   0.014   0.000   22.1    60   14.0   22.0  11.01  .0730    117    1    100.0    5 
13/10/19  18:30   14.3   14.4   14.3    80   10.9   4.0   WSW   0.33  10.0     W   14.3   14.2   14.2  1007.3  0.00  0.00   0.014   0.000   22.1    60   14.0   22.0  11.01  .0731    117    1    100.0    5 
13/10/19  18:35   14.3   14.3   14.3    80   10.9   5.0     W   0.42  10.0   WSW   14.0   14.2   13.9  1007.3  0.00  0.00   0.014   0.000   22.1    60   13.9   21.9  11.02  .0731    116    1    100.0    5 
13/10/19  18:40   14.2   14.3   14.2    80   10.8   5.0     W   0.42  14.0     W   13.9   14.1   13.8  1007.3  0.00  0.00   0.014   0.000   22.1    60   13.9   21.9  11.02  .0731    115    1    100.0    5 
13/10/19  18:45   14.2   14.2   14.2    80   10.8   4.0     W   0.33   8.0   WSW   14.2   14.1   14.1  1007.4  0.00  0.00   0.014   0.000   22.1    60   13.9   21.9  11.02  .0731    116    1    100.0    5 
13/10/19  18:50   14.2   14.2   14.2    80   10.8   4.0     W   0.33  11.0     W   14.2   14.1   14.1  1007.6  0.00  0.00   0.014   0.000   22.1    60   13.9   21.9  11.02  .0731    117    1    100.0    5 
13/10/19  18:55   14.2   14.2   14.2    80   10.8   3.0     W   0.25  12.0     W   14.2   14.1   14.1  1007.8  0.00  0.00   0.014   0.000   22.0    60   13.9   21.8  11.02  .0731    116    1    100.0    5 
13/10/19  19:00   14.2   14.2   14.2    80   10.8   3.0     W   0.25  12.0     W   14.2   14.1   14.1  1007.9  0.00  0.00   0.014   0.000   22.0    60   13.9   21.8  11.02  .0731    116    1    100.0    5 
13/10/19  19:05   14.2   14.2   14.2    80   10.8   2.0     W   0.17   6.0   WSW   14.2   14.1   14.1  1007.9  0.00  0.00   0.014   0.000   22.0    60   13.9   21.8  11.02  .0731    117    1    100.0    5 
13/10/19  19:10   14.2   14.2   14.2    80   10.8   3.0     W   0.25   8.0   WSW   14.2   14.1   14.1  1008.0  0.00  0.00   0.014   0.000   22.0    60   13.9   21.8  11.02  .0731    117    1    100.0    5 
13/10/19  19:15   14.2   14.2   14.1    80   10.8   3.0     W   0.25  10.0     W   14.2   14.1   14.1  1007.9  0.00  0.00   0.014   0.000   21.9    60   13.8   21.8  11.02  .0732    116    1    100.0    5 
13/10/19  19:20   14.1   14.2   14.1    80   10.7   3.0     W   0.25  10.0   WSW   14.1   13.9   13.9  1008.0  0.00  0.00   0.015   0.000   22.0    60   13.9   21.8  11.02  .0731    117    1    100.0    5 
13/10/19  19:25   14.1   14.1   14.1    80   10.7   3.0     W   0.25  10.0     W   14.1   13.9   13.9  1007.9  0.00  0.00   0.015   0.000   21.9    60   13.8   21.8  11.02  .0732    117    1    100.0    5 
13/10/19  19:30   14.1   14.1   14.1    80   10.7   2.0     W   0.17   7.0     W   14.1   13.9   13.9  1008.1  0.00  0.00   0.015   0.000   21.9    60   13.8   21.8  11.02  .0732    117    1    100.0    5 
13/10/19  19:35   14.0   14.1   14.0    80   10.6   2.0     W   0.17   7.0     W   14.0   13.8   13.8  1008.2  0.00  0.00   0.015   0.000   21.9    60   13.8   21.8  11.02  .0732    116    1    100.0    5 
13/10/19  19:40   14.0   14.1   13.9    80   10.6   2.0     W   0.17  10.0     W   14.0   13.8   13.8  1008.2  0.00  0.00   0.015   0.000   21.9    60   13.8   21.8  11.02  .0732    115    1    100.0    5 
13/10/19  19:45   13.9   14.0   13.9    80   10.5   2.0     W   0.17   8.0     W   13.9   13.8   13.8  1008.3  0.00  0.00   0.015   0.000   21.9    60   13.8   21.8  11.02  .0732    117    1    100.0    5 
13/10/19  19:50   13.9   13.9   13.9    80   10.5   2.0     W   0.17   6.0     W   13.9   13.8   13.8  1008.4  0.00  0.00   0.015   0.000   21.9    60   13.8   21.8  11.02  .0732    117    1    100.0    5 
13/10/19  19:55   13.9   13.9   13.9    80   10.5   2.0     W   0.17   6.0   WSW   13.9   13.7   13.7  1008.6  0.00  0.00   0.015   0.000   21.9    60   13.8   21.8  11.02  .0732    115    1    100.0    5 
13/10/19  20:00   13.8   13.9   13.8    80   10.4   2.0     W   0.17   8.0     W   13.8   13.7   13.7  1008.7  0.00  0.00   0.016   0.000   21.9    60   13.8   21.7  11.02  .0732    115    1    100.0    5 
13/10/19  20:05   13.8   13.8   13.8    80   10.4   2.0     W   0.17   7.0   WSW   13.8   13.6   13.6  1008.7  0.00  0.00   0.016   0.000   21.9    60   13.8   21.7  11.02  .0732    116    1    100.0    5 
13/10/19  20:10   13.8   13.8   13.8    80   10.4   2.0     W   0.17   8.0     W   13.8   13.6   13.6  1008.7  0.00  0.00   0.016   0.000   21.9    60   13.8   21.7  11.02  .0732    118    1    100.0    5 
13/10/19  20:15   13.8   13.8   13.8    80   10.4   3.0     W   0.25   8.0     W   13.8   13.6   13.6  1008.7  0.00  0.00   0.016   0.000   21.9    60   13.8   21.7  11.02  .0732    116    1    100.0    5 
13/10/19  20:20   13.8   13.8   13.8    80   10.4   3.0     W   0.25   7.0     W   13.8   13.6   13.6  1008.7  0.00  0.00   0.016   0.000   21.9    60   13.8   21.7  11.02  .0732    117    1    100.0    5 
13/10/19  20:25   13.8   13.8   13.8    80   10.4   2.0     W   0.17   6.0     W   13.8   13.6   13.6  1008.7  0.00  0.00   0.016   0.000   21.9    60   13.8   21.7  11.02  .0732    117    1    100.0    5 
13/10/19  20:30   13.7   13.8   13.7    80   10.3   2.0     W   0.17   4.0     W   13.7   13.6   13.6  1008.7  0.00  0.00   0.016   0.000   21.8    60   13.7   21.6  11.02  .0733    117    1    100.0    5 
13/10/19  20:35   13.7   13.7   13.7    80   10.3   1.0     W   0.08   5.0     W   13.7   13.5   13.5  1008.8  0.00  0.00   0.016   0.000   21.8    60   13.7   21.6  11.02  .0733    116    1    100.0    5 
13/10/19  20:40   13.6   13.7   13.6    80   10.2   1.0     W   0.08   4.0     W   13.6   13.4   13.4  1008.9  0.00  0.00   0.016   0.000   21.8    60   13.7   21.6  11.02  .0733    116    1    100.0    5 
13/10/19  20:45   13.5   13.6   13.5    80   10.1   0.0     W   0.00   1.0     W   13.5   13.3   13.3  1008.9  0.00  0.00   0.017   0.000   21.8    60   13.7   21.6  11.02  .0733    116    1    100.0    5 
13/10/19  20:50   13.3   13.5   13.3    81   10.1   0.0     W   0.00   3.0     W   13.3   13.2   13.2  1008.9  0.00  0.00   0.017   0.000   21.8    60   13.7   21.6  11.02  .0733    116    1    100.0    5 
13/10/19  20:55   13.2   13.3   13.2    81   10.0   0.0     W   0.00   4.0     W   13.2   13.1   13.1  1008.9  0.00  0.00   0.018   0.000   21.8    60   13.7   21.6  11.02  .0733    116    1    100.0    5 
13/10/19  21:00   13.1   13.2   13.1    81    9.9   0.0   ---   0.00   0.0   ---   13.1   12.9   12.9  1009.0  0.00  0.00   0.018   0.000   21.8    60   13.7   21.6  11.02  .0733    117    1    100.0    5 
13/10/19  21:05   12.9   13.1   12.9    81    9.8   0.0     W   0.00   3.0     W   12.9   12.8   12.8  1009.1  0.00  0.00   0.019   0.000   21.8    60   13.7   21.6  11.02  .0733    114    1    100.0    5 
13/10/19  21:10   12.8   12.9   12.8    81    9.7   0.0     W   0.00   3.0     W   12.8   12.7   12.7  1009.2  0.00  0.00   0.019   0.000   21.8    60   13.7   21.6  11.02  .0733    117    1    100.0    5 
13/10/19  21:15   12.8   12.8   12.8    81    9.6   0.0     W   0.00   1.0     W   12.8   12.6   12.6  1009.3  0.00  0.00   0.019   0.000   21.8    60   13.7   21.6  11.02  .0733    116    1    100.0    5 
13/10/19  21:20   12.8   12.8   12.8    81    9.6   0.0     W   0.00   2.0     W   12.8   12.6   12.6  1009.4  0.00  0.00   0.019   0.000   21.8    60   13.7   21.6  11.03  .0733    116    1    100.0    5 
13/10/19  21:25   12.7   12.8   12.7    81    9.5   0.0     W   0.00   2.0     W   12.7   12.6   12.6  1009.5  0.00  0.00   0.019   0.000   21.8    60   13.7   21.6  11.02  .0733    117    1    100.0    5 
13/10/19  21:30   12.6   12.7   12.6    82    9.6   0.0     W   0.00   1.0     W   12.6   12.5   12.5  1009.7  0.00  0.00   0.020   0.000   21.8    60   13.7   21.6  11.03  .0733    116    1    100.0    5 
13/10/19  21:35   12.6   12.6   12.6    82    9.6   0.0     W   0.00   1.0     W   12.6   12.4   12.4  1009.7  0.00  0.00   0.020   0.000   21.8    60   13.7   21.6  11.03  .0733    117    1    100.0    5 
13/10/19  21:40   12.7   12.7   12.6    82    9.7   0.0     W   0.00   3.0     W   12.7   12.6   12.6  1009.7  0.00  0.00   0.019   0.000   21.8    60   13.7   21.6  11.03  .0733    117    1    100.0    5 
13/10/19  21:45   12.8   12.8   12.7    82    9.8   0.0     W   0.00   5.0     W   12.8   12.7   12.7  1009.8  0.00  0.00   0.019   0.000   21.8    60   13.7   21.6  11.03  .0733    114    1    100.0    5 
13/10/19  21:50   13.1   13.1   12.9    82   10.1   2.0     W   0.17   5.0     W   13.1   12.9   12.9  1009.9  0.00  0.00   0.018   0.000   21.8    60   13.7   21.6  11.03  .0734    116    1    100.0    5 
13/10/19  21:55   13.2   13.2   13.1    83   10.4   2.0     W   0.17   6.0     W   13.2   13.1   13.1  1009.9  0.00  0.00   0.018   0.000   21.8    60   13.7   21.6  11.03  .0734    117    1    100.0    5 
13/10/19  22:00   13.4   13.4   13.3    82   10.4   2.0     W   0.17   6.0     W   13.4   13.3   13.3  1009.9  0.00  0.00   0.017   0.000   21.8    60   13.7   21.6  11.03  .0734    116    1    100.0    5 
13/10/19  22:05   13.5   13.5   13.4    82   10.5   1.0     W   0.08   5.0     W   13.5   13.4   13.4  1009.9  0.00  0.00   0.017   0.000   21.7    60   13.6   21.4  11.03  .0734    117    1    100.0    5 
13/10/19  22:10   13.6   13.6   13.5    82   10.5   1.0     W   0.08   3.0     W   13.6   13.4   13.4  1010.0  0.00  0.00   0.017   0.000   21.7    60   13.6   21.4  11.03  .0734    114    1    100.0    5 
13/10/19  22:15   13.6   13.6   13.6    82   10.5   0.0     W   0.00   2.0     W   13.6   13.4   13.4  1010.1  0.00  0.00   0.017   0.000   21.7    60   13.6   21.4  11.03  .0734    118    1    100.0    5 
13/10/19  22:20   13.4   13.6   13.4    82   10.4   0.0   ---   0.00   0.0   ---   13.4   13.3   13.3  1010.1  0.00  0.00   0.017   0.000   21.7    60   13.6   21.4  11.03  .0734    116    1    100.0    5 
13/10/19  22:25   13.3   13.4   13.3    82   10.3   0.0   ---   0.00   0.0   ---   13.3   13.2   13.2  1010.2  0.00  0.00   0.017   0.000   21.7    60   13.6   21.4  11.03  .0734    117    1    100.0    5 
13/10/19  22:30   13.2   13.3   13.2    82   10.2   0.0   ---   0.00   0.0   ---   13.2   13.1   13.1  1010.2  0.00  0.00   0.018   0.000   21.7    60   13.6   21.4  11.03  .0734    117    1    100.0    5 
13/10/19  22:35   13.1   13.2   13.1    82   10.1   0.0     W   0.00   2.0     W   13.1   12.9   12.9  1010.3  0.00  0.00   0.018   0.000   21.7    60   13.6   21.4  11.03  .0734    117    1    100.0    5 
13/10/19  22:40   12.9   13.1   12.9    82    9.9   0.0   ---   0.00   0.0   ---   12.9   12.8   12.8  1010.2  0.00  0.00   0.019   0.000   21.7    60   13.6   21.4  11.03  .0734    115    1    100.0    5 
13/10/19  22:45   12.8   12.9   12.8    82    9.8   0.0     W   0.00   1.0     W   12.8   12.7   12.7  1010.2  0.00  0.00   0.019   0.000   21.7    60   13.6   21.4  11.03  .0734    116    1    100.0    5 
13/10/19  22:50   12.7   12.8   12.7    82    9.7   0.0     W   0.00   2.0     W   12.7   12.6   12.6  1010.3  0.00  0.00   0.019   0.000   21.7    60   13.6   21.4  11.03  .0734    116    1    100.0    5 
13/10/19  22:55   12.7   12.7   12.7    83    9.9   0.0     W   0.00   2.0     W   12.7   12.6   12.6  1010.3  0.00  0.00   0.019   0.000   21.7    60   13.6   21.4  11.03  .0734    114    1    100.0    5 
13/10/19  23:00   12.6   12.7   12.6    82    9.6   0.0   ---   0.00   0.0   ---   12.6   12.5   12.5  1010.3  0.00  0.00   0.020   0.000   21.7    60   13.6   21.4  11.03  .0734    117    1    100.0    5 
13/10/19  23:05   12.4   12.6   12.4    82    9.5   0.0   ---   0.00   0.0   ---   12.4   12.3   12.3  1010.5  0.00  0.00   0.020   0.000   21.7    60   13.6   21.4  11.03  .0734    116    1    100.0    5 
13/10/19  23:10   12.4   12.4   12.4    83    9.6   0.0   ---   0.00   0.0   ---   12.4   12.3   12.3  1010.4  0.00  0.00   0.021   0.000   21.7    60   13.6   21.4  11.03  .0734    116    1    100.0    5 
13/10/19  23:15   12.3   12.4   12.3    83    9.5   0.0   ---   0.00   0.0   ---   12.3   12.2   12.2  1010.5  0.00  0.00   0.021   0.000   21.7    60   13.6   21.4  11.03  .0734    115    1    100.0    5 
13/10/19  23:20   12.3   12.3   12.3    83    9.5   0.0   ---   0.00   0.0   ---   12.3   12.2   12.2  1010.5  0.00  0.00   0.021   0.000   21.6    60   13.5   21.3  11.03  .0735    118    1    100.0    5 
13/10/19  23:25   12.3   12.3   12.3    83    9.5   0.0   ---   0.00   0.0   ---   12.3   12.2   12.2  1010.6  0.00  0.00   0.021   0.000   21.6    60   13.5   21.3  11.03  .0735    116    1    100.0    5 
13/10/19  23:30   12.3   12.3   12.3    83    9.5   0.0   ---   0.00   0.0   ---   12.3   12.2   12.2  1010.6  0.00  0.00   0.021   0.000   21.6    60   13.5   21.3  11.03  .0735    116    1    100.0    5 
13/10/19  23:35   12.3   12.3   12.2    83    9.5   0.0   ---   0.00   0.0   ---   12.3   12.2   12.2  1010.5  0.00  0.00   0.021   0.000   21.6    60   13.5   21.3  11.03  .0735    115    1    100.0    5 
13/10/19  23:40   12.3   12.3   12.2    83    9.5   0.0   ---   0.00   0.0   ---   12.3   12.2   12.2  1010.5  0.00  0.00   0.021   0.000   21.6    60   13.5   21.3  11.03  .0735    117    1    100.0    5 
13/10/19  23:45   12.3   12.3   12.3    83    9.5   0.0   ---   0.00   0.0   ---   12.3   12.2   12.2  1010.4  0.00  0.00   0.021   0.000   21.6    60   13.5   21.3  11.03  .0734    117    1    100.0    5 
13/10/19  23:50   12.3   12.3   12.3    83    9.5   0.0   ---   0.00   0.0   ---   12.3   12.2   12.2  1010.3  0.00  0.00   0.021   0.000   21.6    60   13.5   21.2  11.03  .0735    116    1    100.0    5 
13/10/19  23:55   12.3   12.3   12.3    83    9.5   0.0   ---   0.00   0.0   ---   12.3   12.2   12.2  1010.3  0.00  0.00   0.021   0.000   21.6    60   13.5   21.3  11.03  .0734    115    1    100.0    5 
14/10/19  00:00   12.3   12.3   12.3    83    9.5   0.0   WNW   0.00   2.0     W   12.3   12.2   12.2  1010.3  0.00  0.00   0.021   0.000   21.6    60   13.5   21.3  11.03  .0734    115    1    100.0    5 
14/10/19   0:05   12.2   12.3   12.2    84    9.6   0.0   ---   0.00   0.0   ---   12.2   12.2   12.2  1010.5  0.00  0.00   0.021   0.000   21.6    60   13.5   21.2  11.03  .0735    114    1    100.0    5 
14/10/19   0:10   12.1   12.2   12.1    84    9.5   0.0   ---   0.00   0.0   ---   12.1   12.1   12.1  1010.4  0.00  0.00   0.022   0.000   21.6    60   13.5   21.2  11.03  .0735    116    1    100.0    5 
14/10/19   0:15   12.1   12.2   12.1    84    9.5   0.0   ---   0.00   0.0   ---   12.1   12.1   12.1  1010.3  0.00  0.00   0.022   0.000   21.6    60   13.5   21.2  11.03  .0735    117    1    100.0    5 
14/10/19   0:20   12.1   12.1   12.1    84    9.4   0.0   ---   0.00   0.0   ---   12.1   12.0   12.0  1010.3  0.00  0.00   0.022   0.000   21.6    60   13.5   21.2  11.03  .0735    117    1    100.0    5 
14/10/19   0:25   12.1   12.1   12.1    84    9.4   0.0   ---   0.00   0.0   ---   12.1   12.0   12.0  1010.3  0.00  0.00   0.022   0.000   21.6    60   13.5   21.2  11.03  .0735    117    1    100.0    5 
14/10/19   0:30   12.1   12.1   12.1    84    9.5   0.0   ---   0.00   0.0   ---   12.1   12.1   12.1  1010.3  0.00  0.00   0.022   0.000   21.5    60   13.4   21.2  11.04  .0735    117    1    100.0    5 
14/10/19   0:35   12.1   12.1   12.1    84    9.5   0.0   ---   0.00   0.0   ---   12.1   12.1   12.1  1010.1  0.00  0.00   0.022   0.000   21.5    60   13.4   21.2  11.04  .0735    116    1    100.0    5 
14/10/19   0:40   12.1   12.1   12.1    84    9.5   0.0   ---   0.00   0.0   ---   12.1   12.1   12.1  1010.3  0.00  0.00   0.022   0.000   21.5    60   13.4   21.2  11.04  .0735    117    1    100.0    5 
14/10/19   0:45   12.1   12.2   12.1    84    9.5   0.0   ---   0.00   0.0   ---   12.1   12.1   12.1  1010.4  0.00  0.00   0.022   0.000   21.5    60   13.4   21.2  11.04  .0735    116    1    100.0    5 
14/10/19   0:50   12.2   12.2   12.1    84    9.5   0.0   ---   0.00   0.0   ---   12.2   12.1   12.1  1010.3  0.00  0.00   0.021   0.000   21.5    60   13.4   21.2  11.04  .0735    118    1    100.0    5 
14/10/19   0:55   12.1   12.2   12.1    84    9.5   0.0   ---   0.00   0.0   ---   12.1   12.1   12.1  1010.3  0.00  0.00   0.022   0.000   21.5    60   13.4   21.2  11.04  .0735    116    1    100.0    5 
14/10/19   1:00   12.1   12.1   12.1    84    9.4   0.0   ---   0.00   0.0   ---   12.1   12.0   12.0  1010.3  0.00  0.00   0.022   0.000   21.5    60   13.4   21.2  11.04  .0735    116    1    100.0    5 
14/10/19   1:05   12.1   12.1   12.1    84    9.4   0.0   ---   0.00   0.0   ---   12.1   12.0   12.0  1010.3  0.00  0.00   0.022   0.000   21.4    60   13.4   21.1  11.04  .0735    115    1    100.0    5 
14/10/19   1:10   12.0   12.1   12.0    84    9.4   0.0   ---   0.00   0.0   ---   12.0   11.9   11.9  1010.2  0.00  0.00   0.022   0.000   21.4    60   13.4   21.1  11.04  .0735    117    1    100.0    5 
14/10/19   1:15   12.0   12.1   12.0    84    9.4   0.0   ---   0.00   0.0   ---   12.0   11.9   11.9  1010.2  0.00  0.00   0.022   0.000   21.4    60   13.4   21.1  11.04  .0735    116    1    100.0    5 
14/10/19   1:20   12.0   12.0   12.0    84    9.4   0.0   ---   0.00   0.0   ---   12.0   11.9   11.9  1010.3  0.00  0.00   0.022   0.000   21.4    60   13.4   21.1  11.04  .0735    116    1    100.0    5 
14/10/19   1:25   12.0   12.0   12.0    84    9.4   0.0   ---   0.00   0.0   ---   12.0   11.9   11.9  1010.3  0.00  0.00   0.022   0.000   21.4    60   13.4   21.1  11.04  .0735    117    1    100.0    5 
14/10/19   1:30   12.0   12.0   12.0    84    9.4   0.0   ---   0.00   0.0   ---   12.0   11.9   11.9  1010.4  0.00  0.00   0.022   0.000   21.4    60   13.3   21.0  11.04  .0735    117    1    100.0    5 
14/10/19   1:35   12.0   12.0   12.0    84    9.4   0.0   ---   0.00   0.0   ---   12.0   11.9   11.9  1010.3  0.00  0.00   0.022   0.000   21.4    60   13.3   21.0  11.04  .0735    117    1    100.0    5 
14/10/19   1:40   12.0   12.0   12.0    85    9.6   0.0   ---   0.00   0.0   ---   12.0   11.9   11.9  1010.3  0.00  0.00   0.022   0.000   21.4    59   13.0   21.0  10.93  .0735    115    1    100.0    5 
14/10/19   1:45   12.0   12.0   12.0    85    9.6   0.0   ---   0.00   0.0   ---   12.0   11.9   11.9  1010.2  0.00  0.00   0.022   0.000   21.4    59   13.0   21.0  10.93  .0735    115    1    100.0    5 
14/10/19   1:50   12.1   12.1   12.0    85    9.6   0.0   ---   0.00   0.0   ---   12.1   12.0   12.0  1010.1  0.00  0.00   0.022   0.000   21.4    60   13.3   21.0  11.04  .0735    118    1    100.0    5 
14/10/19   1:55   12.1   12.1   12.1    85    9.6   0.0   ---   0.00   0.0   ---   12.1   12.0   12.0  1010.1  0.00  0.00   0.022   0.000   21.4    59   13.0   21.0  10.93  .0735    116    1    100.0    5 
14/10/19   2:00   12.1   12.1   12.1    85    9.6   0.0   ---   0.00   0.0   ---   12.1   12.0   12.0  1010.1  0.00  0.00   0.022   0.000   21.4    59   13.0   21.0  10.93  .0735    116    1    100.0    5 
14/10/19   2:05   12.1   12.1   12.1    85    9.6   0.0   ---   0.00   0.0   ---   12.1   12.0   12.0  1010.2  0.00  0.00   0.022   0.000   21.4    60   13.3   21.0  11.04  .0735    116    1    100.0    5 
14/10/19   2:10   12.1   12.1   12.1    85    9.6   0.0   ---   0.00   0.0   ---   12.1   12.0   12.0  1010.1  0.00  0.00   0.022   0.000   21.4    59   13.0   21.0  10.93  .0735    116    1    100.0    5 
14/10/19   2:15   12.1   12.1   12.0    85    9.6   0.0   ---   0.00   0.0   ---   12.1   12.0   12.0  1010.0  0.00  0.00   0.022   0.000   21.3    59   13.0   20.9  10.93  .0735    117    1    100.0    5 
14/10/19   2:20   12.0   12.1   12.0    85    9.6   0.0   ---   0.00   0.0   ---   12.0   11.9   11.9  1010.0  0.00  0.00   0.022   0.000   21.3    59   13.0   20.9  10.93  .0735    117    1    100.0    5 
14/10/19   2:25   12.0   12.0   12.0    85    9.6   0.0   ---   0.00   0.0   ---   12.0   11.9   11.9  1009.9  0.00  0.00   0.022   0.000   21.4    59   13.0   21.0  10.93  .0735    117    1    100.0    5 
14/10/19   2:30   12.0   12.1   12.0    85    9.6   0.0   ---   0.00   0.0   ---   12.0   11.9   11.9  1009.8  0.00  0.00   0.022   0.000   21.3    59   13.0   20.9  10.93  .0735    117    1    100.0    5 
14/10/19   2:35   12.1   12.1   12.0    85    9.6   0.0   ---   0.00   0.0   ---   12.1   12.0   12.0  1009.8  0.00  0.00   0.022   0.000   21.3    59   13.0   20.9  10.93  .0735    116    1    100.0    5 
14/10/19   2:40   12.1   12.1   12.1    85    9.6   0.0   ---   0.00   0.0   ---   12.1   12.0   12.0  1009.7  0.00  0.00   0.022   0.000   21.3    59   13.0   20.9  10.93  .0735    116    1    100.0    5 
14/10/19   2:45   12.1   12.1   12.1    85    9.6   0.0   ---   0.00   0.0   ---   12.1   12.0   12.0  1009.8  0.00  0.00   0.022   0.000   21.3    59   13.0   20.9  10.93  .0735    116    1    100.0    5 
14/10/19   2:50   12.1   12.1   12.1    85    9.6   0.0   ---   0.00   0.0   ---   12.1   12.0   12.0  1009.8  0.00  0.00   0.022   0.000   21.3    59   13.0   20.9  10.93  .0735    117    1    100.0    5 
14/10/19   2:55   12.1   12.1   12.1    85    9.7   0.0   ---   0.00   0.0   ---   12.1   12.1   12.1  1009.7  0.00  0.00   0.022   0.000   21.3    59   13.0   20.9  10.93  .0735    118    1    100.0    5 
14/10/19   3:00   12.1   12.1   12.1    85    9.7   0.0   ---   0.00   0.0   ---   12.1   12.1   12.1  1009.6  0.00  0.00   0.022   0.000   21.3    59   12.9   20.8  10.94  .0735    116    1    100.0    5 
14/10/19   3:05   12.2   12.2   12.1    85    9.7   0.0   ---   0.00   0.0   ---   12.2   12.1   12.1  1009.5  0.00  0.00   0.021   0.000   21.3    59   12.9   20.8  10.94  .0735    115    1    100.0    5 
14/10/19   3:10   12.2   12.2   12.2    85    9.8   0.0   ---   0.00   0.0   ---   12.2   12.2   12.2  1009.4  0.00  0.00   0.021   0.000   21.3    59   12.9   20.8  10.94  .0735    117    1    100.0    5 
14/10/19   3:15   12.2   12.2   12.2    85    9.8   0.0   ---   0.00   0.0   ---   12.2   12.2   12.2  1009.4  0.00  0.00   0.021   0.000   21.3    59   12.9   20.8  10.94  .0735    117    1    100.0    5 
14/10/19   3:20   12.2   12.2   12.2    85    9.8   0.0   ---   0.00   0.0   ---   12.2   12.2   12.2  1009.2  0.00  0.00   0.021   0.000   21.3    59   12.9   20.8  10.94  .0735    114    1    100.0    5 
14/10/19   3:25   12.3   12.3   12.2    85    9.8   0.0   ---   0.00   0.0   ---   12.3   12.2   12.2  1009.1  0.00  0.00   0.021   0.000   21.2    59   12.9   20.8  10.94  .0735    115    1    100.0    5 
14/10/19   3:30   12.3   12.3   12.3    85    9.8   0.0     W   0.00   1.0   WNW   12.3   12.2   12.2  1009.3  0.00  0.00   0.021   0.000   21.2    59   12.9   20.8  10.94  .0735    116    1    100.0    5 
14/10/19   3:35   12.6   12.6   12.3    85   10.2   1.0   WSW   0.08   4.0   SSW   12.6   12.6   12.6  1009.4  0.00  0.00   0.020   0.000   21.2    59   12.9   20.8  10.94  .0735    116    1    100.0    5 
14/10/19   3:40   13.1   13.1   12.7    85   10.6   1.0    SE   0.08   4.0   SSW   13.1   13.0   13.0  1009.4  0.00  0.00   0.018   0.000   21.2    59   12.9   20.8  10.94  .0735    117    1    100.0    5 
14/10/19   3:45   13.3   13.3   13.1    85   10.8   1.0    SE   0.08   2.0    SE   13.3   13.2   13.2  1009.5  0.00  0.00   0.018   0.000   21.2    59   12.9   20.8  10.94  .0735    117    1    100.0    5 
14/10/19   3:50   13.5   13.5   13.3    85   11.0   1.0    SE   0.08   2.0    SE   13.5   13.4   13.4  1009.5  0.00  0.00   0.017   0.000   21.2    59   12.9   20.8  10.94  .0735    114    1    100.0    5 
14/10/19   3:55   13.7   13.7   13.5    85   11.2   1.0    SE   0.08   3.0   SSE   13.7   13.6   13.6  1009.7  0.00  0.00   0.016   0.000   21.3    59   12.9   20.8  10.94  .0735    117    1    100.0    5 
14/10/19   4:00   13.8   13.8   13.7    85   11.4   1.0   SSE   0.08   4.0   SSE   13.8   13.8   13.8  1009.8  0.00  0.00   0.016   0.000   21.3    59   12.9   20.8  10.94  .0735    118    1    100.0    5 
14/10/19   4:05   13.9   13.9   13.8    85   11.5   2.0    SE   0.17   4.0    SE   13.9   13.9   13.9  1009.7  0.00  0.00   0.015   0.000   21.2    59   12.9   20.8  10.94  .0735    117    1    100.0    5 
14/10/19   4:10   14.0   14.0   13.9    84   11.3   2.0    SE   0.17   4.0    SE   14.0   13.9   13.9  1009.7  0.00  0.00   0.015   0.000   21.2    59   12.9   20.8  10.94  .0735    116    1    100.0    5 
14/10/19   4:15   14.1   14.1   14.0    84   11.4   3.0    SE   0.25   6.0    SE   14.1   14.1   14.1  1009.7  0.00  0.00   0.015   0.000   21.2    59   12.9   20.8  10.94  .0735    117    1    100.0    5 
14/10/19   4:20   14.2   14.2   14.1    83   11.4   4.0    SE   0.33   6.0    SE   14.2   14.1   14.1  1009.7  0.00  0.00   0.014   0.000   21.2    59   12.9   20.8  10.94  .0735    116    1    100.0    5 
14/10/19   4:25   14.3   14.3   14.2    83   11.4   3.0    SE   0.25   5.0    SE   14.3   14.2   14.2  1009.7  0.00  0.00   0.014   0.000   21.2    59   12.8   20.7  10.95  .0736    117    1    100.0    5 
14/10/19   4:30   14.4   14.4   14.3    83   11.6   3.0    SE   0.25   5.0    SE   14.4   14.4   14.4  1009.7  0.00  0.00   0.014   0.000   21.2    59   12.8   20.7  10.95  .0736    116    1    100.0    5 
14/10/19   4:35   14.6   14.6   14.4    83   11.7   3.0    SE   0.25   6.0    SE   14.6   14.5   14.5  1009.6  0.00  0.00   0.013   0.000   21.2    59   12.8   20.7  10.95  .0735    116    1    100.0    5 
14/10/19   4:40   14.6   14.6   14.6    83   11.7   5.0    SE   0.42   7.0    SE   14.3   14.5   14.3  1009.6  0.00  0.00   0.013   0.000   21.2    59   12.8   20.7  10.95  .0735    117    1    100.0    5 
14/10/19   4:45   14.6   14.6   14.6    83   11.8   4.0    SE   0.33   6.0    SE   14.6   14.6   14.6  1009.6  0.00  0.00   0.013   0.000   21.1    59   12.8   20.6  10.95  .0736    116    1    100.0    5 
14/10/19   4:50   14.6   14.6   14.6    83   11.7   4.0    SE   0.33   6.0    SE   14.6   14.5   14.5  1009.4  0.00  0.00   0.013   0.000   21.1    59   12.8   20.6  10.95  .0736    116    1    100.0    5 
14/10/19   4:55   14.5   14.6   14.5    83   11.6   5.0    SE   0.42   8.0    SE   14.3   14.4   14.2  1009.1  0.01  0.00   0.013   0.000   21.1    59   12.8   20.6  10.95  .0735    117    1    100.0    5 
14/10/19   5:00   14.4   14.5   14.4    83   11.6   3.0    SE   0.25   6.0    SE   14.4   14.4   14.4  1009.1  0.00  0.00   0.014   0.000   21.1    59   12.8   20.6  10.95  .0735    116    1    100.0    5 
14/10/19   5:05   14.3   14.4   14.3    83   11.4   3.0    SE   0.25   6.0    SE   14.3   14.2   14.2  1009.0  0.00  0.00   0.014   0.000   21.1    59   12.8   20.6  10.95  .0735    117    1    100.0    5 
14/10/19   5:10   14.1   14.3   14.1    83   11.3   3.0   ESE   0.25   6.0   ESE   14.1   14.0   14.0  1009.0  0.00  0.00   0.015   0.000   21.1    59   12.8   20.6  10.95  .0735    116    1    100.0    5 
14/10/19   5:15   14.1   14.1   14.1    83   11.3   2.0   ESE   0.17   4.0   ESE   14.1   14.0   14.0  1008.9  0.00  0.00   0.015   0.000   21.1    59   12.8   20.6  10.95  .0735    116    1    100.0    5 
14/10/19   5:20   14.1   14.1   14.1    83   11.2   2.0   ESE   0.17   4.0   ESE   14.1   13.9   13.9  1008.8  0.00  0.00   0.015   0.000   21.1    59   12.8   20.6  10.95  .0735    117    1    100.0    5 
14/10/19   5:25   14.1   14.1   14.1    83   11.2   3.0   ESE   0.25   5.0   ESE   14.1   13.9   13.9  1008.8  0.00  0.00   0.015   0.000   21.1    59   12.8   20.6  10.95  .0735    117    1    100.0    5 
14/10/19   5:30   14.1   14.1   14.1    83   11.2   3.0   ESE   0.25   5.0   ESE   14.1   13.9   13.9  1008.7  0.00  0.00   0.015   0.000   21.1    59   12.7   20.6  10.95  .0735    116    1    100.0    5 
14/10/19   5:35   14.1   14.1   14.1    83   11.2   2.0   ESE   0.17   5.0   ESE   14.1   13.9   13.9  1008.7  0.00  0.00   0.015   0.000   21.1    59   12.7   20.6  10.95  .0735    116    1    100.0    5 
14/10/19   5:40   13.9   14.1   13.9    83   11.1   3.0   ESE   0.25   6.0   ESE   13.9   13.8   13.8  1008.6  0.00  0.00   0.015   0.000   21.1    59   12.7   20.6  10.95  .0735    117    1    100.0    5 
14/10/19   5:45   13.8   13.9   13.8    83   11.0   3.0   ESE   0.25   5.0   ESE   13.8   13.7   13.7  1008.6  0.00  0.00   0.016   0.000   21.1    59   12.7   20.6  10.95  .0735    116    1    100.0    5 
14/10/19   5:50   13.7   13.8   13.7    83   10.8   3.0   ESE   0.25   6.0   ESE   13.7   13.6   13.6  1008.6  0.00  0.00   0.016   0.000   21.1    59   12.7   20.6  10.95  .0735    116    1    100.0    5 
14/10/19   5:55   13.4   13.7   13.4    83   10.6   3.0   ESE   0.25   6.0   ESE   13.4   13.3   13.3  1008.7  0.00  0.00   0.017   0.000   21.0    59   12.7   20.5  10.95  .0735    117    1    100.0    5 
14/10/19   6:00   13.4   13.4   13.4    83   10.6   3.0   ESE   0.25   8.0   ESE   13.4   13.3   13.3  1008.6  0.00  0.00   0.017   0.000   21.0    59   12.7   20.5  10.95  .0735    117    1    100.0    5 
14/10/19   6:05   13.1   13.4   13.1    82   10.1   4.0   ESE   0.33  11.0    SE   12.9   13.0   12.8  1008.5  0.00  0.00   0.018   0.000   21.0    59   12.7   20.5  10.95  .0735    117    1    100.0    5 
14/10/19   6:10   12.9   13.1   12.9    81    9.7   3.0   ESE   0.25  11.0   ESE   12.9   12.7   12.7  1008.4  0.01  0.00   0.019   0.000   21.0    59   12.7   20.5  10.95  .0735    115    1    100.0    5 
14/10/19   6:15   13.1   13.1   12.9    82   10.1   1.0   ESE   0.08   3.0    SE   13.1   13.0   13.0  1008.3  0.00  0.00   0.018   0.000   21.0    59   12.7   20.5  10.95  .0735    117    1    100.0    5 
14/10/19   6:20   13.1   13.2   13.1    82   10.1   2.0   ESE   0.17   5.0   ESE   13.1   12.9   12.9  1008.4  0.00  0.00   0.018   0.000   21.0    59   12.7   20.5  10.95  .0735    117    1    100.0    5 
14/10/19   6:25   13.1   13.1   13.1    82   10.1   2.0   ESE   0.17   3.0   ESE   13.1   12.9   12.9  1008.4  0.00  0.00   0.018   0.000   21.0    59   12.7   20.5  10.95  .0735    116    1    100.0    5 
14/10/19   6:30   12.9   13.1   12.9    81    9.8   2.0   ESE   0.17   4.0   ESE   12.9   12.8   12.8  1008.5  0.00  0.00   0.019   0.000   21.0    59   12.7   20.5  10.95  .0735    116    1    100.0    5 
14/10/19   6:35   12.9   12.9   12.9    81    9.8   0.0   ESE   0.00   3.0   ESE   12.9   12.8   12.8  1008.4  0.01  0.00   0.019   0.000   20.9    59   12.6   20.5  10.95  .0735    117    1    100.0    5 
14/10/19   6:40   12.8   12.9   12.8    81    9.7   0.0   ---   0.00   0.0   ---   12.8   12.7   12.7  1008.4  0.01  0.08   0.019   0.000   21.0    59   12.7   20.5  10.95  .0735    117    1    100.0    5 
14/10/19   6:45   12.8   12.8   12.8    82    9.8   0.0   ---   0.00   0.0   ---   12.8   12.7   12.7  1008.2  0.00  0.08   0.019   0.000   20.9    59   12.6   20.5  10.95  .0735    117    1    100.0    5 
14/10/19   6:50   12.7   12.8   12.7    82    9.7   0.0   ---   0.00   0.0   ---   12.7   12.6   12.6  1008.2  0.00  0.06   0.019   0.000   20.9    59   12.6   20.5  10.95  .0735    117    1    100.0    5 
14/10/19   6:55   12.6   12.7   12.6    82    9.6   0.0   ---   0.00   0.0   ---   12.6   12.5   12.5  1008.0  0.00  0.04   0.020   0.000   20.9    59   12.6   20.5  10.95  .0735    116    1    100.0    5 
14/10/19   7:00   12.5   12.6   12.5    82    9.5   0.0   ---   0.00   0.0   ---   12.5   12.4   12.4  1008.0  0.00  0.00   0.020   0.000   20.9    59   12.6   20.5  10.95  .0735    117    1    100.0    5 
14/10/19   7:05   12.4   12.5   12.4    82    9.4   0.0   ---   0.00   0.0   ---   12.4   12.3   12.3  1008.1  0.00  0.00   0.021   0.000   20.9    59   12.6   20.5  10.95  .0735    116    1    100.0    5 
14/10/19   7:10   12.3   12.4   12.3    83    9.5   0.0   ---   0.00   0.0   ---   12.3   12.2   12.2  1008.2  0.01  0.00   0.021   0.000   20.9    59   12.6   20.5  10.95  .0735    117    1    100.0    5 
14/10/19   7:15   12.3   12.3   12.3    83    9.5   0.0   ---   0.00   0.0   ---   12.3   12.2   12.2  1008.2  0.00  0.00   0.021   0.000   20.9    59   12.6   20.5  10.95  .0735    117    1    100.0    5 
14/10/19   7:20   12.3   12.3   12.2    83    9.5   0.0   ---   0.00   0.0   ---   12.3   12.2   12.2  1008.2  0.01  0.04   0.021   0.000   20.9    59   12.6   20.5  10.95  .0735    116    1    100.0    5 
14/10/19   7:25   12.2   12.3   12.2    83    9.4   0.0   ---   0.00   0.0   ---   12.2   12.1   12.1  1008.0  0.00  0.04   0.021   0.000   20.9    59   12.6   20.5  10.95  .0735    115    1    100.0    5 
14/10/19   7:30   12.2   12.2   12.2    83    9.4   0.0   ESE   0.00   1.0   ESE   12.2   12.1   12.1  1008.1  0.01  0.08   0.021   0.000   20.9    60   12.9   20.6  11.05  .0735    117    1    100.0    5 
14/10/19   7:35   12.2   12.2   12.2    84    9.6   0.0   ESE   0.00   3.0   ESE   12.2   12.2   12.2  1007.9  0.00  0.08   0.021   0.000   20.9    60   12.9   20.6  11.05  .0735    117    1    100.0    5 
14/10/19   7:40   12.2   12.2   12.2    84    9.6   0.0   ESE   0.00   3.0   ESE   12.2   12.2   12.2  1008.0  0.00  0.05   0.021   0.000   20.9    60   12.9   20.6  11.05  .0735    117    1    100.0    5 
14/10/19   7:45   12.3   12.3   12.2    84    9.7   1.0     E   0.08   4.0     E   12.3   12.2   12.2  1008.0  0.00  0.00   0.021   0.000   20.9    60   12.9   20.6  11.05  .0735    117    1    100.0    5 
14/10/19   7:50   12.3   12.3   12.3    84    9.7   1.0   NNE   0.08   5.0     E   12.3   12.2   12.2  1007.8  0.00  0.00   0.021   0.000   21.0    60   12.9   20.6  11.05  .0734    115    1    100.0    5 
14/10/19   7:55   12.2   12.3   12.2    84    9.6   1.0   NNE   0.08   5.0   NNE   12.2   12.2   12.2  1007.6  0.00  0.00   0.021   0.000   21.0    60   12.9   20.6  11.05  .0734    117    1    100.0    5 
14/10/19   8:00   12.2   12.3   12.2    84    9.6   1.0   NNE   0.08   6.0   NNE   12.2   12.2   12.2  1007.5  0.00  0.00   0.021   0.000   21.1    61   13.2   20.7  11.25  .0734    117    1    100.0    5 
14/10/19   8:05   12.2   12.2   12.2    84    9.6   1.0    NE   0.08   3.0   NNE   12.2   12.2   12.2  1007.7  0.00  0.00   0.021   0.000   21.1    65   14.3   20.9  11.85  .0733    116    1    100.0    5 
14/10/19   8:10   12.2   12.2   12.2    85    9.8   1.0   NNE   0.08   4.0    NE   12.2   12.2   12.2  1007.4  0.00  0.00   0.021   0.000   21.2    64   14.1   20.9  11.65  .0733    117    1    100.0    5 
14/10/19   8:15   12.2   12.2   12.2    85    9.7   1.0    NE   0.08   5.0    NE   12.2   12.1   12.1  1007.7  0.00  0.00   0.021   0.000   21.2    63   13.8   20.9  11.55  .0733    118    1    100.0    5 
14/10/19   8:20   12.2   12.2   12.2    84    9.5   1.0    NE   0.08   4.0    NE   12.2   12.1   12.1  1007.7  0.00  0.00   0.021   0.000   21.2    63   13.9   20.9  11.55  .0733    117    1    100.0    5 
14/10/19   8:25   12.2   12.2   12.2    85    9.7   1.0    NE   0.08   6.0    NE   12.2   12.1   12.1  1007.7  0.01  0.00   0.021   0.000   21.3    63   13.9   21.1  11.54  .0733    115    1    100.0    5 
14/10/19   8:30   12.2   12.2   12.1    85    9.7   1.0    NE   0.08   4.0    NE   12.2   12.1   12.1  1007.7  0.00  0.00   0.021   0.000   21.3    62   13.7   21.0  11.34  .0733    116    1    100.0    5 
14/10/19   8:35   12.2   12.2   12.2    85    9.8   1.0    NE   0.08   4.0    NE   12.2   12.2   12.2  1007.7  0.00  0.00   0.021   0.000   21.3    62   13.8   21.1  11.34  .0733    116    1    100.0    5 
14/10/19   8:40   12.3   12.3   12.2    85    9.8   1.0    NE   0.08   4.0    NE   12.3   12.2   12.2  1007.5  0.00  0.00   0.021   0.000   21.3    62   13.8   21.1  11.34  .0733    116    1    100.0    5 
14/10/19   8:45   12.3   12.3   12.3    85    9.8   1.0     N   0.08   4.0     N   12.3   12.2   12.2  1007.5  0.00  0.00   0.021   0.000   21.4    62   13.8   21.1  11.34  .0733    117    1    100.0    5 
14/10/19   8:50   12.3   12.3   12.3    85    9.9   2.0   NNE   0.17   7.0    NE   12.3   12.3   12.3  1007.2  0.00  0.00   0.021   0.000   21.4    62   13.8   21.1  11.34  .0732    117    1    100.0    5 
14/10/19   8:55   12.4   12.4   12.3    85    9.9   2.0   NNE   0.17   6.0   NNE   12.4   12.3   12.3  1007.1  0.00  0.00   0.021   0.000   21.4    62   13.8   21.1  11.34  .0732    117    1    100.0    5 
14/10/19   9:00   12.4   12.4   12.4    85   10.0   1.0   NNE   0.08   4.0   NNE   12.4   12.4   12.4  1007.1  0.00  0.00   0.020   0.000   21.4    62   13.9   21.2  11.34  .0732    116    1    100.0    5 
14/10/19   9:05   12.5   12.5   12.4    85   10.0   1.0    NE   0.08   5.0   NNE   12.5   12.4   12.4  1006.9  0.01  0.00   0.020   0.000   21.4    62   13.9   21.2  11.34  .0732    116    1    100.0    5 
14/10/19   9:10   12.6   12.6   12.5    85   10.1   1.0    NE   0.08   4.0    NE   12.6   12.5   12.5  1006.9  0.00  0.00   0.020   0.000   21.5    62   13.9   21.3  11.34  .0732    115    1    100.0    5 
14/10/19   9:15   12.6   12.6   12.6    85   10.2   0.0    NE   0.00   4.0    NE   12.6   12.6   12.6  1006.8  0.00  0.00   0.020   0.000   21.5    61   13.7   21.2  11.22  .0732    116    1    100.0    5 
14/10/19   9:20   12.7   12.7   12.6    85   10.2   1.0    NE   0.08   4.0    NE   12.7   12.6   12.6  1006.6  0.00  0.00   0.020   0.000   21.5    61   13.7   21.2  11.22  .0732    117    1    100.0    5 
14/10/19   9:25   12.7   12.7   12.7    85   10.3   1.0    NE   0.08   5.0    NE   12.7   12.7   12.7  1006.4  0.00  0.00   0.019   0.000   21.5    62   13.9   21.3  11.34  .0732    117    1    100.0    5 
14/10/19   9:30   12.8   12.8   12.7    85   10.3   1.0    NE   0.08   4.0    NE   12.8   12.7   12.7  1006.4  0.00  0.00   0.019   0.000   21.6    62   14.0   21.3  11.33  .0731    116    1    100.0    5 
14/10/19   9:35   12.8   12.8   12.8    85   10.4   1.0    NE   0.08   5.0    NE   12.8   12.8   12.8  1006.4  0.00  0.00   0.019   0.000   21.6    62   14.0   21.3  11.33  .0731    116    1    100.0    5 
14/10/19   9:40   12.8   12.9   12.8    85   10.4   1.0    NE   0.08   5.0   NNE   12.8   12.8   12.8  1006.2  0.00  0.00   0.019   0.000   21.6    62   14.0   21.3  11.33  .0731    116    1    100.0    5 
14/10/19   9:45   12.9   12.9   12.8    86   10.6   2.0    NE   0.17  10.0    NE   12.9   12.8   12.8  1006.1  0.00  0.00   0.019   0.000   21.6    63   14.3   21.4  11.53  .0731    117    1    100.0    5 
14/10/19   9:50   12.9   12.9   12.9    85   10.4   4.0   ENE   0.33  17.0    NE   12.7   12.8   12.6  1006.0  0.00  0.00   0.019   0.000   21.6    63   14.3   21.4  11.53  .0731    117    1    100.0    5 
14/10/19   9:55   12.8   12.9   12.8    85   10.4   3.0    NE   0.25   9.0    NE   12.8   12.8   12.8  1006.0  0.00  0.00   0.019   0.000   21.6    67   15.2   21.7  12.33  .0730    117    1    100.0    5 
14/10/19  10:00   12.8   12.8   12.8    86   10.5   3.0   ENE   0.25   8.0     E   12.8   12.7   12.7  1005.9  0.00  0.00   0.019   0.000   21.8    72   16.5   22.1  13.70  .0728    116    1    100.0    5 
14/10/19  10:05   12.8   12.8   12.7    86   10.5   3.0    NE   0.25   9.0   ENE   12.8   12.7   12.7  1005.7  0.00  0.00   0.019   0.000   21.8    72   16.6   22.2  13.70  .0728    117    1    100.0    5 
14/10/19  10:10   12.8   12.8   12.7    85   10.3   3.0   ENE   0.25   9.0   ENE   12.8   12.7   12.7  1005.6  0.00  0.00   0.019   0.000   21.8    71   16.3   22.2  13.40  .0728    117    1    100.0    5 
14/10/19  10:15   12.8   12.8   12.8    85   10.3   3.0   ENE   0.25   9.0   ENE   12.8   12.7   12.7  1005.7  0.00  0.00   0.019   0.000   21.9    71   16.4   22.2  13.39  .0728    117    1    100.0    5 
14/10/19  10:20   12.8   12.8   12.8    86   10.5   3.0   ENE   0.25  10.0   ENE   12.8   12.7   12.7  1005.6  0.00  0.00   0.019   0.000   21.9    72   16.6   22.3  13.69  .0728    118    1    100.0    5 
14/10/19  10:25   12.8   12.8   12.8    86   10.5   2.0   ENE   0.17   9.0   ENE   12.8   12.8   12.8  1005.6  0.00  0.00   0.019   0.000   21.9    71   16.4   22.2  13.39  .0728    117    1    100.0    5 
14/10/19  10:30   12.9   12.9   12.8    86   10.6   2.0   ENE   0.17   8.0    NE   12.9   12.8   12.8  1005.6  0.00  0.00   0.019   0.000   21.9    71   16.4   22.2  13.39  .0728    117    1    100.0    5 
14/10/19  10:35   12.9   12.9   12.9    85   10.5   3.0   ENE   0.25  11.0     E   12.9   12.9   12.9  1005.4  0.00  0.00   0.019   0.000   21.9    71   16.4   22.2  13.39  .0728    117    1    100.0    5 
14/10/19  10:40   13.0   13.0   12.9    85   10.5   4.0   ENE   0.33  12.0   NNE   12.8   12.9   12.8  1005.4  0.00  0.00   0.019   0.000   21.9    71   16.4   22.2  13.39  .0728    117    1    100.0    5 
14/10/19  10:45   13.1   13.1   13.0    85   10.6   3.0   ENE   0.25  13.0    NE   13.1   13.0   13.0  1005.4  0.00  0.00   0.018   0.000   21.8    71   16.3   22.2  13.40  .0728    116    1    100.0    5 
14/10/19  10:50   13.1   13.1   13.1    85   10.6   4.0   ENE   0.33  10.0   ENE   12.9   13.0   12.8  1005.2  0.00  0.00   0.018   0.000   21.8    70   16.1   22.1  13.10  .0728    117    1    100.0    5 
14/10/19  10:55   13.1   13.1   13.1    85   10.6   4.0    NE   0.33  13.0   ENE   12.9   13.0   12.8  1005.0  0.00  0.00   0.018   0.000   21.8    70   16.1   22.1  13.10  .0728    117    1    100.0    5 
14/10/19  11:00   13.1   13.1   13.1    85   10.6   4.0   ENE   0.33  14.0   ENE   12.9   13.0   12.8  1004.9  0.00  0.00   0.018   0.000   21.8    70   16.1   22.1  13.10  .0728    117    1    100.0    5 
14/10/19  11:05   13.1   13.1   13.1    85   10.6   3.0    NE   0.25  11.0   ENE   13.1   13.0   13.0  1004.8  0.00  0.00   0.018   0.000   21.8    70   16.1   22.1  13.10  .0728    115    1    100.0    5 
14/10/19  11:10   13.0   13.1   13.0    85   10.5   3.0   ENE   0.25  10.0    NE   13.0   12.9   12.9  1004.7  0.00  0.00   0.019   0.000   21.9    70   16.2   22.2  13.09  .0727    117    1    100.0    5 
14/10/19  11:15   13.0   13.0   13.0    85   10.5   3.0    NE   0.25  11.0   ENE   13.0   12.9   12.9  1004.5  0.00  0.00   0.019   0.000   21.9    70   16.2   22.2  13.09  .0727    116    1    100.0    5 
14/10/19  11:20   13.1   13.1   13.0    85   10.6   3.0   ENE   0.25   8.0   ENE   13.1   13.0   13.0  1004.5  0.00  0.00   0.018   0.000   21.9    70   16.2   22.2  13.09  .0727    116    1    100.0    5 
14/10/19  11:25   13.1   13.1   13.1    85   10.6   3.0    NE   0.25  11.0    NE   13.1   13.0   13.0  1004.4  0.00  0.00   0.018   0.000   21.9    70   16.2   22.2  13.09  .0727    118    1    100.0    5 
14/10/19  11:30   13.1   13.1   13.1    85   10.6   3.0   ENE   0.25  10.0   ENE   13.1   13.1   13.1  1004.3  0.00  0.00   0.018   0.000   21.9    70   16.2   22.2  13.09  .0727    117    1    100.0    5 
14/10/19  11:35   13.2   13.2   13.1    85   10.7   2.0   ENE   0.17   5.0   ENE   13.2   13.1   13.1  1004.2  0.00  0.00   0.018   0.000   21.9    70   16.2   22.2  13.09  .0727    117    1    100.0    5 
14/10/19  11:40   13.2   13.2   13.2    85   10.8   2.0   ENE   0.17   7.0    NE   13.2   13.2   13.2  1004.1  0.00  0.00   0.018   0.000   21.9    70   16.2   22.2  13.09  .0727    117    1    100.0    5 
14/10/19  11:45   13.2   13.2   13.2    85   10.8   2.0   ENE   0.17   7.0   ENE   13.2   13.2   13.2  1004.1  0.00  0.00   0.018   0.000   21.9    70   16.2   22.2  13.09  .0727    117    1    100.0    5 
14/10/19  11:50   13.3   13.3   13.2    85   10.8   1.0   ENE   0.08  10.0    NE   13.3   13.2   13.2  1004.1  0.00  0.00   0.018   0.000   21.9    70   16.2   22.2  13.09  .0727    117    1    100.0    5 
14/10/19  11:55   13.3   13.3   13.2    85   10.8   1.0    NE   0.08   3.0    NE   13.3   13.2   13.2  1004.1  0.00  0.00   0.018   0.000   21.9    70   16.2   22.2  13.09  .0727    117    1    100.0    5 
14/10/19  12:00   13.3   13.3   13.3    85   10.8   2.0   ENE   0.17   9.0   ENE   13.3   13.2   13.2  1004.0  0.00  0.00   0.018   0.000   21.9    70   16.2   22.2  13.09  .0727    117    1    100.0    5 
14/10/19  12:05   13.3   13.3   13.3    85   10.8   2.0   ENE   0.17   8.0    NE   13.3   13.2   13.2  1003.9  0.00  0.00   0.018   0.000   21.9    70   16.2   22.2  13.09  .0727    116    1    100.0    5 
14/10/19  12:10   13.3   13.3   13.3    85   10.9   3.0   ENE   0.25  13.0   ENE   13.3   13.3   13.3  1003.7  0.00  0.00   0.017   0.000   21.9    70   16.2   22.2  13.09  .0727    116    1    100.0    5 
14/10/19  12:15   13.3   13.3   13.3    85   10.9   1.0   ENE   0.08   3.0   ENE   13.3   13.3   13.3  1003.7  0.00  0.00   0.017   0.000   21.9    70   16.2   22.2  13.09  .0727    117    1    100.0    5 
14/10/19  12:20   13.4   13.4   13.3    85   10.9   1.0    NE   0.08   5.0   ENE   13.4   13.3   13.3  1003.5  0.00  0.00   0.017   0.000   21.9    70   16.2   22.2  13.09  .0727    117    1    100.0    5 
14/10/19  12:25   13.4   13.4   13.4    85   10.9   1.0   ENE   0.08   6.0    NE   13.4   13.3   13.3  1003.3  0.00  0.00   0.017   0.000   21.9    70   16.2   22.2  13.09  .0726    118    1    100.0    5 
14/10/19  12:30   13.4   13.4   13.4    85   11.0   2.0   ENE   0.17  10.0   ENE   13.4   13.4   13.4  1003.3  0.00  0.00   0.017   0.000   21.9    69   15.9   22.1  12.82  .0727    116    1    100.0    5 
14/10/19  12:35   13.5   13.5   13.4    85   11.0   2.0    NE   0.17   9.0   ENE   13.5   13.4   13.4  1003.3  0.00  0.00   0.017   0.000   21.9    69   15.9   22.1  12.82  .0727    117    1    100.0    5 
14/10/19  12:40   13.6   13.6   13.5    85   11.1   3.0   ENE   0.25  12.0    NE   13.6   13.5   13.5  1003.1  0.00  0.00   0.017   0.000   21.9    70   16.2   22.2  13.09  .0726    117    1    100.0    5 
14/10/19  12:45   13.6   13.6   13.6    85   11.1   2.0   ENE   0.17   8.0   ENE   13.6   13.5   13.5  1003.1  0.00  0.00   0.017   0.000   21.9    69   15.9   22.1  12.82  .0726    116    1    100.0    5 
14/10/19  12:50   13.6   13.6   13.6    85   11.1   3.0   ENE   0.25  12.0    NE   13.6   13.6   13.6  1003.1  0.00  0.00   0.016   0.000   21.9    70   16.2   22.2  13.09  .0726    117    1    100.0    5 
14/10/19  12:55   13.6   13.7   13.6    85   11.1   2.0   ENE   0.17   9.0   ENE   13.6   13.6   13.6  1003.2  0.00  0.00   0.016   0.000   21.9    69   15.9   22.1  12.82  .0726    117    1    100.0    5 
14/10/19  13:00   13.7   13.7   13.7    85   11.2   2.0   ENE   0.17   5.0   ENE   13.7   13.6   13.6  1003.1  0.00  0.00   0.016   0.000   21.9    70   16.2   22.2  13.09  .0726    117    1    100.0    5 
14/10/19  13:05   13.7   13.7   13.7    85   11.2   1.0   ENE   0.08   6.0   ENE   13.7   13.7   13.7  1002.9  0.00  0.00   0.016   0.000   21.9    70   16.2   22.2  13.09  .0726    117    1    100.0    5 
14/10/19  13:10   13.8   13.8   13.7    85   11.3   2.0   ENE   0.17  16.0     E   13.8   13.7   13.7  1002.7  0.00  0.00   0.016   0.000   21.9    70   16.2   22.2  13.09  .0726    117    1    100.0    5 
14/10/19  13:15   13.9   13.9   13.8    85   11.4   5.0   ENE   0.42  11.0   ENE   13.6   13.8   13.5  1002.5  0.00  0.00   0.015   0.000   21.8    69   15.9   22.1  12.82  .0726    116    1    100.0    5 
14/10/19  13:20   14.0   14.0   13.9    85   11.5   3.0   ENE   0.25  13.0   ENE   14.0   13.9   13.9  1002.4  0.00  0.00   0.015   0.000   21.8    69   15.9   22.1  12.82  .0726    116    1    100.0    5 
14/10/19  13:25   14.1   14.1   14.0    85   11.6   3.0   ENE   0.25  13.0     E   14.1   14.0   14.0  1002.4  0.00  0.00   0.015   0.000   21.8    69   15.9   22.1  12.82  .0726    115    1    100.0    5 
14/10/19  13:30   14.2   14.2   14.1    85   11.7   5.0   ENE   0.42  11.0    NE   13.9   14.1   13.8  1002.3  0.00  0.00   0.014   0.000   21.8    70   16.1   22.1  13.10  .0726    118    1    100.0    5 
14/10/19  13:35   14.3   14.3   14.2    85   11.8   3.0   ENE   0.25   8.0     E   14.3   14.2   14.2  1002.1  0.00  0.00   0.014   0.000   21.8    70   16.1   22.1  13.10  .0726    117    1    100.0    5 
14/10/19  13:40   14.3   14.3   14.3    85   11.8   4.0   ENE   0.33  12.0   ESE   14.3   14.3   14.3  1002.1  0.00  0.00   0.014   0.000   21.8    70   16.1   22.1  13.10  .0726    117    1    100.0    5 
14/10/19  13:45   14.4   14.4   14.3    85   12.0   3.0   ENE   0.25  13.0   ENE   14.4   14.4   14.4  1002.0  0.00  0.00   0.014   0.000   21.8    70   16.1   22.1  13.10  .0726    117    1    100.0    5 
14/10/19  13:50   14.5   14.5   14.4    85   12.0   5.0   ENE   0.42  11.0   ENE   14.3   14.4   14.2  1002.0  0.00  0.00   0.013   0.000   21.8    70   16.1   22.1  13.10  .0726    117    1    100.0    5 
14/10/19  13:55   14.6   14.6   14.5    85   12.1   5.0   ENE   0.42   9.0   ENE   14.4   14.6   14.4  1002.0  0.00  0.00   0.013   0.000   21.8    70   16.1   22.1  13.10  .0726    117    1    100.0    5 
14/10/19  14:00   14.7   14.7   14.6    85   12.2   5.0   ENE   0.42  11.0     E   14.6   14.7   14.6  1001.7  0.00  0.00   0.013   0.000   21.8    70   16.1   22.1  13.10  .0725    117    1    100.0    5 
14/10/19  14:05   14.8   14.8   14.7    85   12.3   5.0     E   0.42  15.0     E   14.6   14.8   14.6  1001.5  0.00  0.00   0.012   0.000   21.8    70   16.1   22.1  13.10  .0725    117    1    100.0    5 
14/10/19  14:10   14.9   14.9   14.8    86   12.6   4.0   ENE   0.33  14.0     E   14.9   14.9   14.9  1001.5  0.00  0.00   0.012   0.000   21.8    70   16.1   22.1  13.10  .0725    117    1    100.0    5 
14/10/19  14:15   15.1   15.1   14.9    85   12.6   3.0     E   0.25  11.0     E   15.1   15.1   15.1  1001.3  0.00  0.00   0.011   0.000   21.8    70   16.1   22.1  13.10  .0725    116    1    100.0    5 
14/10/19  14:20   15.2   15.2   15.1    85   12.7   5.0     E   0.42  13.0     E   15.2   15.2   15.2  1001.2  0.00  0.00   0.011   0.000   21.8    70   16.1   22.1  13.10  .0725    117    1    100.0    5 
14/10/19  14:25   15.4   15.4   15.2    86   13.1   4.0     E   0.33   9.0     E   15.4   15.4   15.4  1001.2  0.00  0.00   0.010   0.000   21.8    70   16.1   22.1  13.10  .0725    117    1    100.0    5 
14/10/19  14:30   15.5   15.5   15.4    85   13.0   2.0     E   0.17   5.0     E   15.5   15.6   15.6  1001.2  0.00  0.00   0.010   0.000   21.8    70   16.1   22.1  13.10  .0725    116    1    100.0    5 
14/10/19  14:35   15.6   15.6   15.5    85   13.0   2.0     E   0.17   8.0   ESE   15.6   15.6   15.6  1001.1  0.00  0.00   0.010   0.000   21.8    70   16.1   22.1  13.10  .0725    118    1    100.0    5 
14/10/19  14:40   15.5   15.6   15.5    85   13.0   2.0     E   0.17   6.0     E   15.5   15.6   15.6  1001.2  0.00  0.00   0.010   0.000   21.8    70   16.1   22.1  13.10  .0725    116    1    100.0    5 
14/10/19  14:45   15.6   15.6   15.5    85   13.0   2.0     E   0.17   9.0     E   15.6   15.6   15.6  1001.1  0.00  0.00   0.010   0.000   21.8    70   16.1   22.1  13.10  .0725    116    1    100.0    5 
14/10/19  14:50   15.6   15.6   15.6    85   13.1   2.0     E   0.17   5.0     E   15.6   15.7   15.7  1001.1  0.00  0.00   0.009   0.000   21.8    70   16.1   22.1  13.10  .0725    117    1    100.0    5 
14/10/19  14:55   15.8   15.8   15.6    85   13.3   2.0     E   0.17   9.0     E   15.8   15.9   15.9  1001.1  0.00  0.00   0.009   0.000   21.8    70   16.1   22.1  13.10  .0725    117    1    100.0    5 
14/10/19  15:00   15.9   15.9   15.8    85   13.4   4.0   ESE   0.33  15.0   ESE   15.9   16.1   16.1  1000.9  0.00  0.00   0.008   0.000   21.8    70   16.1   22.1  13.10  .0725    117    1    100.0    5 
14/10/19  15:05   16.0   16.0   15.9    85   13.5   6.0   ESE   0.50  15.0   ESE   15.9   16.1   16.0  1000.8  0.00  0.00   0.008   0.000   21.8    70   16.1   22.1  13.10  .0725    117    1    100.0    5 
14/10/19  15:10   16.0   16.1   16.0    85   13.5   4.0     E   0.33  12.0     E   16.0   16.1   16.1  1000.8  0.00  0.00   0.008   0.000   21.9    70   16.2   22.2  13.09  .0725    116    1    100.0    5 
14/10/19  15:15   16.1   16.1   16.0    85   13.5   3.0     E   0.25  11.0   ESE   16.1   16.2   16.2  1000.7  0.00  0.00   0.008   0.000   21.9    70   16.2   22.2  13.09  .0725    117    1    100.0    5 
14/10/19  15:20   16.1   16.1   16.1    85   13.6   4.0   ESE   0.33   8.0     E   16.1   16.2   16.2  1000.6  0.00  0.00   0.008   0.000   21.9    70   16.2   22.2  13.09  .0724    117    1    100.0    5 
14/10/19  15:25   16.2   16.2   16.1    85   13.6   2.0     E   0.17   8.0   ESE   16.2   16.3   16.3  1000.4  0.00  0.00   0.008   0.000   21.9    70   16.2   22.2  13.09  .0724    117    1    100.0    5 
14/10/19  15:30   16.2   16.2   16.2    85   13.7   2.0     E   0.17   9.0   ESE   16.2   16.3   16.3  1000.3  0.00  0.00   0.007   0.000   21.9    70   16.2   22.2  13.09  .0724    117    1    100.0    5 
14/10/19  15:35   16.3   16.3   16.2    85   13.8   3.0   ESE   0.25   7.0   ESE   16.3   16.4   16.4  1000.2  0.00  0.00   0.007   0.000   21.9    70   16.2   22.2  13.09  .0724    117    1    100.0    5 
14/10/19  15:40   16.3   16.3   16.3    85   13.8   2.0   ESE   0.17   4.0   ESE   16.3   16.4   16.4  1000.1  0.00  0.00   0.007   0.000   21.9    70   16.2   22.3  13.09  .0724    118    1    100.0    5 
14/10/19  15:45   16.3   16.3   16.3    85   13.8   2.0   ESE   0.17   3.0   ESE   16.3   16.4   16.4  1000.0  0.00  0.00   0.007   0.000   21.9    71   16.4   22.3  13.39  .0724    117    1    100.0    5 
14/10/19  15:50   16.4   16.4   16.3    85   13.9   2.0   ESE   0.17   3.0   ESE   16.4   16.6   16.6  1000.1  0.00  0.00   0.007   0.000   21.9    70   16.2   22.3  13.09  .0724    116    1    100.0    5 
14/10/19  15:55   16.3   16.4   16.3    85   13.8   1.0     E   0.08   3.0     E   16.3   16.4   16.4   999.9  0.00  0.00   0.007   0.000   21.9    71   16.4   22.3  13.39  .0724    117    1    100.0    5 
14/10/19  16:00   16.3   16.3   16.3    85   13.8   1.0     E   0.08   9.0     E   16.3   16.4   16.4  1000.0  0.00  0.00   0.007   0.000   22.0    71   16.5   22.3  13.39  .0723    117    1    100.0    5 
14/10/19  16:05   16.3   16.3   16.3    85   13.8   2.0   ESE   0.17   3.0     E   16.3   16.4   16.4  1000.1  0.00  0.00   0.007   0.000   21.9    70   16.2   22.3  13.09  .0724    116    1    100.0    5 
99706